<?xml version="1.0" encoding="UTF-8" standalone="no" ?>
<gpx xmlns="http://www.topografix.com/GPX/1/1" xmlns:xsi="http://www.w3.org/2001/XMLSchema-instance" xsi:schemaLocation="http://www.topografix.com/GPX/1/1 http://www.topografix.com/GPX/1/1/gpx.xsd" version="1.1" creator="VisuGPX - https://www.visugpx.com">
  <metadata>
    <name>reconnaissance CO le thor</name>
    <desc><![CDATA[avec walter]]></desc>
  </metadata>
  <wpt lat="43.94234" lon="4.98637">
    <ele>83</ele>
    <name><![CDATA[Le thor reco1 (départ)]]></name>
  </wpt>
  <wpt lat="43.94225" lon="4.98633">
    <ele>113</ele>
    <name><![CDATA[Le thor reco1 (fin)]]></name>
    <desc><![CDATA[Créé par Mes parcours sur Android  Nom : Le thor reco1 Type d'activité : cyclisme Description : avec waltet Distance totale : 4,96 km (3,1 mi) Durée totale : 1:23:26 Durée du déplacement : 1:20:42 Vitesse moyenne : 3,57 km/h (2,2 mi/h) Vitesse moyenne de déplacement : 3,69 km/h (2,3 mi/h) Vitesse max. : 16,20 km/h (10,1 mi/h) Vitesse moyenne : 16:50 min/km (27:05 min/mi) Allure moyenne : 16:16 min/km (26:12 min/mi) Vitesse maximale : 3:42 min/km (5:58 min/mi) Élévation max. : 163 m (533 pi) Élévation min. : 83 m (272 pi) Dénivelé : 152 m (499 pi) Inclinaison max. : 17 % Inclinaison min. : -25 % Date d'enregistrement : 6/3/2015 10:06]]></desc>
  </wpt>
  <trk>
    <name><![CDATA[Le thor reco1]]></name>
    <desc><![CDATA[avec waltet]]></desc>
    <trkseg>
      <trkpt lat="43.94234" lon="4.98637">
        <ele>83</ele>
        <time>2015-03-06T09:06:25Z</time>
      </trkpt>
      <trkpt lat="43.94226" lon="4.98633">
        <ele>108</ele>
        <time>2015-03-06T09:10:38Z</time>
      </trkpt>
      <trkpt lat="43.94225" lon="4.98631">
        <ele>108</ele>
        <time>2015-03-06T09:10:39Z</time>
      </trkpt>
      <trkpt lat="43.9422" lon="4.98625">
        <ele>108</ele>
        <time>2015-03-06T09:10:43Z</time>
      </trkpt>
      <trkpt lat="43.94218" lon="4.98623">
        <ele>109</ele>
        <time>2015-03-06T09:10:44Z</time>
      </trkpt>
      <trkpt lat="43.94213" lon="4.98614">
        <ele>110</ele>
        <time>2015-03-06T09:10:48Z</time>
      </trkpt>
      <trkpt lat="43.94213" lon="4.98612">
        <ele>109</ele>
        <time>2015-03-06T09:10:49Z</time>
      </trkpt>
      <trkpt lat="43.94204" lon="4.98611">
        <ele>108</ele>
        <time>2015-03-06T09:10:57Z</time>
      </trkpt>
      <trkpt lat="43.94201" lon="4.98612">
        <ele>108</ele>
        <time>2015-03-06T09:10:58Z</time>
      </trkpt>
      <trkpt lat="43.94195" lon="4.98614">
        <ele>109</ele>
        <time>2015-03-06T09:11:00Z</time>
      </trkpt>
      <trkpt lat="43.94192" lon="4.98614">
        <ele>109</ele>
        <time>2015-03-06T09:11:01Z</time>
      </trkpt>
      <trkpt lat="43.94184" lon="4.98613">
        <ele>109</ele>
        <time>2015-03-06T09:11:04Z</time>
      </trkpt>
      <trkpt lat="43.94182" lon="4.98611">
        <ele>109</ele>
        <time>2015-03-06T09:11:05Z</time>
      </trkpt>
      <trkpt lat="43.9418" lon="4.98599">
        <ele>108</ele>
        <time>2015-03-06T09:11:10Z</time>
      </trkpt>
      <trkpt lat="43.94181" lon="4.98596">
        <ele>108</ele>
        <time>2015-03-06T09:11:11Z</time>
      </trkpt>
      <trkpt lat="43.9418" lon="4.98585">
        <ele>107</ele>
        <time>2015-03-06T09:11:14Z</time>
      </trkpt>
      <trkpt lat="43.9418" lon="4.98581">
        <ele>106</ele>
        <time>2015-03-06T09:11:15Z</time>
      </trkpt>
      <trkpt lat="43.94178" lon="4.98571">
        <ele>105</ele>
        <time>2015-03-06T09:11:17Z</time>
      </trkpt>
      <trkpt lat="43.94178" lon="4.98564">
        <ele>103</ele>
        <time>2015-03-06T09:11:18Z</time>
      </trkpt>
      <trkpt lat="43.94176" lon="4.98553">
        <ele>103</ele>
        <time>2015-03-06T09:11:20Z</time>
      </trkpt>
      <trkpt lat="43.94175" lon="4.98548">
        <ele>104</ele>
        <time>2015-03-06T09:11:21Z</time>
      </trkpt>
      <trkpt lat="43.94173" lon="4.98537">
        <ele>103</ele>
        <time>2015-03-06T09:11:24Z</time>
      </trkpt>
      <trkpt lat="43.94172" lon="4.98534">
        <ele>102</ele>
        <time>2015-03-06T09:11:25Z</time>
      </trkpt>
      <trkpt lat="43.94168" lon="4.98528">
        <ele>103</ele>
        <time>2015-03-06T09:11:27Z</time>
      </trkpt>
      <trkpt lat="43.94165" lon="4.98524">
        <ele>104</ele>
        <time>2015-03-06T09:11:28Z</time>
      </trkpt>
      <trkpt lat="43.9416" lon="4.98516">
        <ele>103</ele>
        <time>2015-03-06T09:11:30Z</time>
      </trkpt>
      <trkpt lat="43.94158" lon="4.98512">
        <ele>103</ele>
        <time>2015-03-06T09:11:31Z</time>
      </trkpt>
      <trkpt lat="43.94153" lon="4.98504">
        <ele>104</ele>
        <time>2015-03-06T09:11:33Z</time>
      </trkpt>
      <trkpt lat="43.94151" lon="4.98501">
        <ele>104</ele>
        <time>2015-03-06T09:11:34Z</time>
      </trkpt>
      <trkpt lat="43.94146" lon="4.98491">
        <ele>104</ele>
        <time>2015-03-06T09:11:37Z</time>
      </trkpt>
      <trkpt lat="43.94144" lon="4.98488">
        <ele>104</ele>
        <time>2015-03-06T09:11:38Z</time>
      </trkpt>
      <trkpt lat="43.94141" lon="4.98481">
        <ele>104</ele>
        <time>2015-03-06T09:11:40Z</time>
      </trkpt>
      <trkpt lat="43.9414" lon="4.98477">
        <ele>104</ele>
        <time>2015-03-06T09:11:41Z</time>
      </trkpt>
      <trkpt lat="43.94137" lon="4.98465">
        <ele>104</ele>
        <time>2015-03-06T09:11:44Z</time>
      </trkpt>
      <trkpt lat="43.94137" lon="4.98461">
        <ele>105</ele>
        <time>2015-03-06T09:11:45Z</time>
      </trkpt>
      <trkpt lat="43.94136" lon="4.9845">
        <ele>104</ele>
        <time>2015-03-06T09:11:48Z</time>
      </trkpt>
      <trkpt lat="43.94136" lon="4.98446">
        <ele>103</ele>
        <time>2015-03-06T09:11:49Z</time>
      </trkpt>
      <trkpt lat="43.94136" lon="4.98433">
        <ele>103</ele>
        <time>2015-03-06T09:11:52Z</time>
      </trkpt>
      <trkpt lat="43.94136" lon="4.98429">
        <ele>104</ele>
        <time>2015-03-06T09:11:53Z</time>
      </trkpt>
      <trkpt lat="43.94135" lon="4.98417">
        <ele>105</ele>
        <time>2015-03-06T09:11:56Z</time>
      </trkpt>
      <trkpt lat="43.94134" lon="4.98413">
        <ele>105</ele>
        <time>2015-03-06T09:11:57Z</time>
      </trkpt>
      <trkpt lat="43.94134" lon="4.98402">
        <ele>106</ele>
        <time>2015-03-06T09:12:00Z</time>
      </trkpt>
      <trkpt lat="43.94133" lon="4.98399">
        <ele>107</ele>
        <time>2015-03-06T09:12:01Z</time>
      </trkpt>
      <trkpt lat="43.94133" lon="4.98389">
        <ele>109</ele>
        <time>2015-03-06T09:12:05Z</time>
      </trkpt>
      <trkpt lat="43.94134" lon="4.98385">
        <ele>109</ele>
        <time>2015-03-06T09:12:05Z</time>
      </trkpt>
      <trkpt lat="43.94138" lon="4.98375">
        <ele>107</ele>
        <time>2015-03-06T09:12:08Z</time>
      </trkpt>
      <trkpt lat="43.94139" lon="4.98372">
        <ele>108</ele>
        <time>2015-03-06T09:12:09Z</time>
      </trkpt>
      <trkpt lat="43.94144" lon="4.98365">
        <ele>106</ele>
        <time>2015-03-06T09:12:12Z</time>
      </trkpt>
      <trkpt lat="43.94146" lon="4.98362">
        <ele>106</ele>
        <time>2015-03-06T09:12:13Z</time>
      </trkpt>
      <trkpt lat="43.94147" lon="4.98352">
        <ele>106</ele>
        <time>2015-03-06T09:12:16Z</time>
      </trkpt>
      <trkpt lat="43.94147" lon="4.98347">
        <ele>106</ele>
        <time>2015-03-06T09:12:17Z</time>
      </trkpt>
      <trkpt lat="43.9415" lon="4.98337">
        <ele>108</ele>
        <time>2015-03-06T09:12:20Z</time>
      </trkpt>
      <trkpt lat="43.94151" lon="4.98333">
        <ele>109</ele>
        <time>2015-03-06T09:12:21Z</time>
      </trkpt>
      <trkpt lat="43.94153" lon="4.98325">
        <ele>110</ele>
        <time>2015-03-06T09:12:23Z</time>
      </trkpt>
      <trkpt lat="43.94153" lon="4.9832">
        <ele>110</ele>
        <time>2015-03-06T09:12:24Z</time>
      </trkpt>
      <trkpt lat="43.94155" lon="4.98311">
        <ele>110</ele>
        <time>2015-03-06T09:12:26Z</time>
      </trkpt>
      <trkpt lat="43.94155" lon="4.98306">
        <ele>110</ele>
        <time>2015-03-06T09:12:27Z</time>
      </trkpt>
      <trkpt lat="43.94156" lon="4.98297">
        <ele>110</ele>
        <time>2015-03-06T09:12:29Z</time>
      </trkpt>
      <trkpt lat="43.94157" lon="4.98292">
        <ele>110</ele>
        <time>2015-03-06T09:12:30Z</time>
      </trkpt>
      <trkpt lat="43.94159" lon="4.9828">
        <ele>111</ele>
        <time>2015-03-06T09:12:33Z</time>
      </trkpt>
      <trkpt lat="43.94159" lon="4.98277">
        <ele>111</ele>
        <time>2015-03-06T09:12:34Z</time>
      </trkpt>
      <trkpt lat="43.94156" lon="4.98266">
        <ele>113</ele>
        <time>2015-03-06T09:12:46Z</time>
      </trkpt>
      <trkpt lat="43.94156" lon="4.98263">
        <ele>113</ele>
        <time>2015-03-06T09:12:48Z</time>
      </trkpt>
      <trkpt lat="43.94157" lon="4.98253">
        <ele>114</ele>
        <time>2015-03-06T09:12:50Z</time>
      </trkpt>
      <trkpt lat="43.94158" lon="4.98249">
        <ele>114</ele>
        <time>2015-03-06T09:12:51Z</time>
      </trkpt>
      <trkpt lat="43.94163" lon="4.98241">
        <ele>114</ele>
        <time>2015-03-06T09:12:54Z</time>
      </trkpt>
      <trkpt lat="43.94165" lon="4.98238">
        <ele>116</ele>
        <time>2015-03-06T09:12:55Z</time>
      </trkpt>
      <trkpt lat="43.94172" lon="4.98231">
        <ele>115</ele>
        <time>2015-03-06T09:13:01Z</time>
      </trkpt>
      <trkpt lat="43.94172" lon="4.98229">
        <ele>115</ele>
        <time>2015-03-06T09:13:02Z</time>
      </trkpt>
      <trkpt lat="43.94173" lon="4.98218">
        <ele>114</ele>
        <time>2015-03-06T09:13:09Z</time>
      </trkpt>
      <trkpt lat="43.94173" lon="4.98216">
        <ele>115</ele>
        <time>2015-03-06T09:13:10Z</time>
      </trkpt>
      <trkpt lat="43.94176" lon="4.98204">
        <ele>113</ele>
        <time>2015-03-06T09:13:15Z</time>
      </trkpt>
      <trkpt lat="43.94176" lon="4.98201">
        <ele>114</ele>
        <time>2015-03-06T09:13:16Z</time>
      </trkpt>
      <trkpt lat="43.94178" lon="4.98189">
        <ele>112</ele>
        <time>2015-03-06T09:13:19Z</time>
      </trkpt>
      <trkpt lat="43.94179" lon="4.98186">
        <ele>111</ele>
        <time>2015-03-06T09:13:20Z</time>
      </trkpt>
      <trkpt lat="43.94181" lon="4.98176">
        <ele>108</ele>
        <time>2015-03-06T09:13:23Z</time>
      </trkpt>
      <trkpt lat="43.94182" lon="4.98173">
        <ele>109</ele>
        <time>2015-03-06T09:13:24Z</time>
      </trkpt>
      <trkpt lat="43.94182" lon="4.9816">
        <ele>105</ele>
        <time>2015-03-06T09:13:28Z</time>
      </trkpt>
      <trkpt lat="43.9418" lon="4.98159">
        <ele>102</ele>
        <time>2015-03-06T09:13:29Z</time>
      </trkpt>
      <trkpt lat="43.94172" lon="4.98155">
        <ele>99</ele>
        <time>2015-03-06T09:13:33Z</time>
      </trkpt>
      <trkpt lat="43.94169" lon="4.98154">
        <ele>97</ele>
        <time>2015-03-06T09:13:34Z</time>
      </trkpt>
      <trkpt lat="43.94161" lon="4.9815">
        <ele>101</ele>
        <time>2015-03-06T09:13:37Z</time>
      </trkpt>
      <trkpt lat="43.94158" lon="4.9815">
        <ele>99</ele>
        <time>2015-03-06T09:13:38Z</time>
      </trkpt>
      <trkpt lat="43.94152" lon="4.98145">
        <ele>98</ele>
        <time>2015-03-06T09:13:41Z</time>
      </trkpt>
      <trkpt lat="43.9415" lon="4.98143">
        <ele>98</ele>
        <time>2015-03-06T09:13:42Z</time>
      </trkpt>
      <trkpt lat="43.94142" lon="4.98136">
        <ele>102</ele>
        <time>2015-03-06T09:13:49Z</time>
      </trkpt>
      <trkpt lat="43.94142" lon="4.98134">
        <ele>101</ele>
        <time>2015-03-06T09:13:50Z</time>
      </trkpt>
      <trkpt lat="43.94147" lon="4.98127">
        <ele>103</ele>
        <time>2015-03-06T09:13:55Z</time>
      </trkpt>
      <trkpt lat="43.94149" lon="4.98125">
        <ele>102</ele>
        <time>2015-03-06T09:13:56Z</time>
      </trkpt>
      <trkpt lat="43.94155" lon="4.9812">
        <ele>102</ele>
        <time>2015-03-06T09:13:58Z</time>
      </trkpt>
      <trkpt lat="43.94157" lon="4.98117">
        <ele>101</ele>
        <time>2015-03-06T09:13:59Z</time>
      </trkpt>
      <trkpt lat="43.94163" lon="4.98108">
        <ele>106</ele>
        <time>2015-03-06T09:14:02Z</time>
      </trkpt>
      <trkpt lat="43.94164" lon="4.98106">
        <ele>107</ele>
        <time>2015-03-06T09:14:03Z</time>
      </trkpt>
      <trkpt lat="43.94171" lon="4.98099">
        <ele>108</ele>
        <time>2015-03-06T09:14:07Z</time>
      </trkpt>
      <trkpt lat="43.94173" lon="4.98098">
        <ele>108</ele>
        <time>2015-03-06T09:14:08Z</time>
      </trkpt>
      <trkpt lat="43.94182" lon="4.98095">
        <ele>107</ele>
        <time>2015-03-06T09:14:11Z</time>
      </trkpt>
      <trkpt lat="43.94184" lon="4.98094">
        <ele>107</ele>
        <time>2015-03-06T09:14:12Z</time>
      </trkpt>
      <trkpt lat="43.94192" lon="4.98096">
        <ele>110</ele>
        <time>2015-03-06T09:14:15Z</time>
      </trkpt>
      <trkpt lat="43.94195" lon="4.98097">
        <ele>109</ele>
        <time>2015-03-06T09:14:16Z</time>
      </trkpt>
      <trkpt lat="43.94202" lon="4.98101">
        <ele>107</ele>
        <time>2015-03-06T09:14:19Z</time>
      </trkpt>
      <trkpt lat="43.94205" lon="4.98104">
        <ele>108</ele>
        <time>2015-03-06T09:14:20Z</time>
      </trkpt>
      <trkpt lat="43.9421" lon="4.98109">
        <ele>108</ele>
        <time>2015-03-06T09:14:22Z</time>
      </trkpt>
      <trkpt lat="43.94213" lon="4.98112">
        <ele>108</ele>
        <time>2015-03-06T09:14:23Z</time>
      </trkpt>
      <trkpt lat="43.94216" lon="4.98119">
        <ele>108</ele>
        <time>2015-03-06T09:14:25Z</time>
      </trkpt>
      <trkpt lat="43.94217" lon="4.98124">
        <ele>107</ele>
        <time>2015-03-06T09:14:26Z</time>
      </trkpt>
      <trkpt lat="43.94219" lon="4.98134">
        <ele>106</ele>
        <time>2015-03-06T09:14:28Z</time>
      </trkpt>
      <trkpt lat="43.9422" lon="4.98138">
        <ele>108</ele>
        <time>2015-03-06T09:14:29Z</time>
      </trkpt>
      <trkpt lat="43.94221" lon="4.98148">
        <ele>107</ele>
        <time>2015-03-06T09:14:31Z</time>
      </trkpt>
      <trkpt lat="43.94222" lon="4.98152">
        <ele>107</ele>
        <time>2015-03-06T09:14:32Z</time>
      </trkpt>
      <trkpt lat="43.94222" lon="4.98161">
        <ele>106</ele>
        <time>2015-03-06T09:14:34Z</time>
      </trkpt>
      <trkpt lat="43.94222" lon="4.98165">
        <ele>105</ele>
        <time>2015-03-06T09:14:35Z</time>
      </trkpt>
      <trkpt lat="43.94221" lon="4.98174">
        <ele>105</ele>
        <time>2015-03-06T09:14:37Z</time>
      </trkpt>
      <trkpt lat="43.9422" lon="4.98178">
        <ele>106</ele>
        <time>2015-03-06T09:14:38Z</time>
      </trkpt>
      <trkpt lat="43.94218" lon="4.98186">
        <ele>106</ele>
        <time>2015-03-06T09:14:40Z</time>
      </trkpt>
      <trkpt lat="43.94217" lon="4.9819">
        <ele>106</ele>
        <time>2015-03-06T09:14:41Z</time>
      </trkpt>
      <trkpt lat="43.94215" lon="4.98198">
        <ele>107</ele>
        <time>2015-03-06T09:14:43Z</time>
      </trkpt>
      <trkpt lat="43.94213" lon="4.98201">
        <ele>107</ele>
        <time>2015-03-06T09:14:44Z</time>
      </trkpt>
      <trkpt lat="43.94209" lon="4.98212">
        <ele>107</ele>
        <time>2015-03-06T09:14:47Z</time>
      </trkpt>
      <trkpt lat="43.94208" lon="4.98215">
        <ele>108</ele>
        <time>2015-03-06T09:14:48Z</time>
      </trkpt>
      <trkpt lat="43.94206" lon="4.98225">
        <ele>110</ele>
        <time>2015-03-06T09:14:52Z</time>
      </trkpt>
      <trkpt lat="43.94206" lon="4.98229">
        <ele>111</ele>
        <time>2015-03-06T09:14:53Z</time>
      </trkpt>
      <trkpt lat="43.94205" lon="4.98241">
        <ele>111</ele>
        <time>2015-03-06T09:14:56Z</time>
      </trkpt>
      <trkpt lat="43.94205" lon="4.98245">
        <ele>110</ele>
        <time>2015-03-06T09:14:57Z</time>
      </trkpt>
      <trkpt lat="43.94205" lon="4.98256">
        <ele>112</ele>
        <time>2015-03-06T09:15:00Z</time>
      </trkpt>
      <trkpt lat="43.94205" lon="4.9826">
        <ele>112</ele>
        <time>2015-03-06T09:15:01Z</time>
      </trkpt>
      <trkpt lat="43.94204" lon="4.98272">
        <ele>112</ele>
        <time>2015-03-06T09:15:04Z</time>
      </trkpt>
      <trkpt lat="43.94204" lon="4.98276">
        <ele>112</ele>
        <time>2015-03-06T09:15:05Z</time>
      </trkpt>
      <trkpt lat="43.94205" lon="4.98287">
        <ele>114</ele>
        <time>2015-03-06T09:15:08Z</time>
      </trkpt>
      <trkpt lat="43.94205" lon="4.98288">
        <ele>114</ele>
        <time>2015-03-06T09:15:09Z</time>
      </trkpt>
      <trkpt lat="43.94211" lon="4.9829">
        <ele>112</ele>
        <time>2015-03-06T09:15:13Z</time>
      </trkpt>
      <trkpt lat="43.94214" lon="4.9829">
        <ele>112</ele>
        <time>2015-03-06T09:15:14Z</time>
      </trkpt>
      <trkpt lat="43.94223" lon="4.98291">
        <ele>111</ele>
        <time>2015-03-06T09:15:17Z</time>
      </trkpt>
      <trkpt lat="43.94226" lon="4.98292">
        <ele>112</ele>
        <time>2015-03-06T09:15:18Z</time>
      </trkpt>
      <trkpt lat="43.94233" lon="4.9829">
        <ele>113</ele>
        <time>2015-03-06T09:15:21Z</time>
      </trkpt>
      <trkpt lat="43.94236" lon="4.98289">
        <ele>113</ele>
        <time>2015-03-06T09:15:22Z</time>
      </trkpt>
      <trkpt lat="43.94244" lon="4.98286">
        <ele>114</ele>
        <time>2015-03-06T09:15:25Z</time>
      </trkpt>
      <trkpt lat="43.94247" lon="4.98284">
        <ele>115</ele>
        <time>2015-03-06T09:15:26Z</time>
      </trkpt>
      <trkpt lat="43.94253" lon="4.98281">
        <ele>115</ele>
        <time>2015-03-06T09:15:28Z</time>
      </trkpt>
      <trkpt lat="43.94255" lon="4.98278">
        <ele>115</ele>
        <time>2015-03-06T09:15:29Z</time>
      </trkpt>
      <trkpt lat="43.94264" lon="4.98276">
        <ele>114</ele>
        <time>2015-03-06T09:15:32Z</time>
      </trkpt>
      <trkpt lat="43.94267" lon="4.98277">
        <ele>115</ele>
        <time>2015-03-06T09:15:33Z</time>
      </trkpt>
      <trkpt lat="43.94274" lon="4.98284">
        <ele>115</ele>
        <time>2015-03-06T09:15:36Z</time>
      </trkpt>
      <trkpt lat="43.94276" lon="4.98286">
        <ele>115</ele>
        <time>2015-03-06T09:15:37Z</time>
      </trkpt>
      <trkpt lat="43.94281" lon="4.98292">
        <ele>115</ele>
        <time>2015-03-06T09:15:40Z</time>
      </trkpt>
      <trkpt lat="43.94283" lon="4.98294">
        <ele>114</ele>
        <time>2015-03-06T09:15:41Z</time>
      </trkpt>
      <trkpt lat="43.94291" lon="4.98298">
        <ele>114</ele>
        <time>2015-03-06T09:15:44Z</time>
      </trkpt>
      <trkpt lat="43.94294" lon="4.98297">
        <ele>114</ele>
        <time>2015-03-06T09:15:45Z</time>
      </trkpt>
      <trkpt lat="43.94301" lon="4.98294">
        <ele>114</ele>
        <time>2015-03-06T09:15:48Z</time>
      </trkpt>
      <trkpt lat="43.94303" lon="4.98292">
        <ele>114</ele>
        <time>2015-03-06T09:15:49Z</time>
      </trkpt>
      <trkpt lat="43.9431" lon="4.98289">
        <ele>114</ele>
        <time>2015-03-06T09:15:52Z</time>
      </trkpt>
      <trkpt lat="43.94313" lon="4.98288">
        <ele>114</ele>
        <time>2015-03-06T09:15:53Z</time>
      </trkpt>
      <trkpt lat="43.94321" lon="4.98286">
        <ele>114</ele>
        <time>2015-03-06T09:15:56Z</time>
      </trkpt>
      <trkpt lat="43.94324" lon="4.98286">
        <ele>115</ele>
        <time>2015-03-06T09:15:57Z</time>
      </trkpt>
      <trkpt lat="43.94332" lon="4.98287">
        <ele>114</ele>
        <time>2015-03-06T09:16:00Z</time>
      </trkpt>
      <trkpt lat="43.94334" lon="4.98286">
        <ele>114</ele>
        <time>2015-03-06T09:16:01Z</time>
      </trkpt>
      <trkpt lat="43.94338" lon="4.98276">
        <ele>115</ele>
        <time>2015-03-06T09:16:05Z</time>
      </trkpt>
      <trkpt lat="43.94339" lon="4.98274">
        <ele>116</ele>
        <time>2015-03-06T09:16:06Z</time>
      </trkpt>
      <trkpt lat="43.94347" lon="4.98279">
        <ele>117</ele>
        <time>2015-03-06T09:16:10Z</time>
      </trkpt>
      <trkpt lat="43.94348" lon="4.98283">
        <ele>117</ele>
        <time>2015-03-06T09:16:11Z</time>
      </trkpt>
      <trkpt lat="43.94347" lon="4.98271">
        <ele>117</ele>
        <time>2015-03-06T09:16:21Z</time>
      </trkpt>
      <trkpt lat="43.94347" lon="4.98268">
        <ele>117</ele>
        <time>2015-03-06T09:16:22Z</time>
      </trkpt>
      <trkpt lat="43.94352" lon="4.98258">
        <ele>116</ele>
        <time>2015-03-06T09:16:25Z</time>
      </trkpt>
      <trkpt lat="43.94354" lon="4.98254">
        <ele>116</ele>
        <time>2015-03-06T09:16:26Z</time>
      </trkpt>
      <trkpt lat="43.9436" lon="4.98246">
        <ele>117</ele>
        <time>2015-03-06T09:18:34Z</time>
      </trkpt>
      <trkpt lat="43.94361" lon="4.98244">
        <ele>117</ele>
        <time>2015-03-06T09:18:35Z</time>
      </trkpt>
      <trkpt lat="43.94368" lon="4.98238">
        <ele>115</ele>
        <time>2015-03-06T09:18:37Z</time>
      </trkpt>
      <trkpt lat="43.94372" lon="4.98234">
        <ele>115</ele>
        <time>2015-03-06T09:18:38Z</time>
      </trkpt>
      <trkpt lat="43.94377" lon="4.98226">
        <ele>113</ele>
        <time>2015-03-06T09:18:40Z</time>
      </trkpt>
      <trkpt lat="43.94379" lon="4.98222">
        <ele>112</ele>
        <time>2015-03-06T09:18:41Z</time>
      </trkpt>
      <trkpt lat="43.94384" lon="4.98215">
        <ele>112</ele>
        <time>2015-03-06T09:18:44Z</time>
      </trkpt>
      <trkpt lat="43.94385" lon="4.98213">
        <ele>112</ele>
        <time>2015-03-06T09:18:45Z</time>
      </trkpt>
      <trkpt lat="43.94388" lon="4.98204">
        <ele>111</ele>
        <time>2015-03-06T09:18:48Z</time>
      </trkpt>
      <trkpt lat="43.94388" lon="4.982">
        <ele>111</ele>
        <time>2015-03-06T09:18:49Z</time>
      </trkpt>
      <trkpt lat="43.94389" lon="4.98188">
        <ele>109</ele>
        <time>2015-03-06T09:18:52Z</time>
      </trkpt>
      <trkpt lat="43.94389" lon="4.98183">
        <ele>109</ele>
        <time>2015-03-06T09:18:53Z</time>
      </trkpt>
      <trkpt lat="43.94391" lon="4.98172">
        <ele>108</ele>
        <time>2015-03-06T09:18:56Z</time>
      </trkpt>
      <trkpt lat="43.94392" lon="4.98168">
        <ele>107</ele>
        <time>2015-03-06T09:18:57Z</time>
      </trkpt>
      <trkpt lat="43.94393" lon="4.98158">
        <ele>109</ele>
        <time>2015-03-06T09:19:00Z</time>
      </trkpt>
      <trkpt lat="43.94393" lon="4.98154">
        <ele>108</ele>
        <time>2015-03-06T09:19:01Z</time>
      </trkpt>
      <trkpt lat="43.94393" lon="4.98142">
        <ele>108</ele>
        <time>2015-03-06T09:19:21Z</time>
      </trkpt>
      <trkpt lat="43.94391" lon="4.9814">
        <ele>108</ele>
        <time>2015-03-06T09:19:22Z</time>
      </trkpt>
      <trkpt lat="43.94387" lon="4.98131">
        <ele>107</ele>
        <time>2015-03-06T09:19:27Z</time>
      </trkpt>
      <trkpt lat="43.94386" lon="4.98128">
        <ele>106</ele>
        <time>2015-03-06T09:19:28Z</time>
      </trkpt>
      <trkpt lat="43.94391" lon="4.98137">
        <ele>109</ele>
        <time>2015-03-06T09:19:38Z</time>
      </trkpt>
      <trkpt lat="43.94393" lon="4.98139">
        <ele>109</ele>
        <time>2015-03-06T09:19:39Z</time>
      </trkpt>
      <trkpt lat="43.94397" lon="4.98149">
        <ele>109</ele>
        <time>2015-03-06T09:19:43Z</time>
      </trkpt>
      <trkpt lat="43.94399" lon="4.98151">
        <ele>109</ele>
        <time>2015-03-06T09:19:44Z</time>
      </trkpt>
      <trkpt lat="43.94404" lon="4.98157">
        <ele>110</ele>
        <time>2015-03-06T09:19:46Z</time>
      </trkpt>
      <trkpt lat="43.94408" lon="4.9816">
        <ele>110</ele>
        <time>2015-03-06T09:19:47Z</time>
      </trkpt>
      <trkpt lat="43.94413" lon="4.98168">
        <ele>111</ele>
        <time>2015-03-06T09:19:49Z</time>
      </trkpt>
      <trkpt lat="43.94416" lon="4.98172">
        <ele>111</ele>
        <time>2015-03-06T09:19:50Z</time>
      </trkpt>
      <trkpt lat="43.94421" lon="4.98179">
        <ele>110</ele>
        <time>2015-03-06T09:19:52Z</time>
      </trkpt>
      <trkpt lat="43.94424" lon="4.98182">
        <ele>110</ele>
        <time>2015-03-06T09:19:53Z</time>
      </trkpt>
      <trkpt lat="43.94429" lon="4.98178">
        <ele>109</ele>
        <time>2015-03-06T09:19:54Z</time>
      </trkpt>
      <trkpt lat="43.94431" lon="4.98174">
        <ele>110</ele>
        <time>2015-03-06T09:19:55Z</time>
      </trkpt>
      <trkpt lat="43.94436" lon="4.98164">
        <ele>110</ele>
        <time>2015-03-06T09:19:57Z</time>
      </trkpt>
      <trkpt lat="43.94438" lon="4.98159">
        <ele>110</ele>
        <time>2015-03-06T09:19:58Z</time>
      </trkpt>
      <trkpt lat="43.94443" lon="4.98151">
        <ele>109</ele>
        <time>2015-03-06T09:20:00Z</time>
      </trkpt>
      <trkpt lat="43.94445" lon="4.98147">
        <ele>110</ele>
        <time>2015-03-06T09:20:01Z</time>
      </trkpt>
      <trkpt lat="43.9445" lon="4.98141">
        <ele>110</ele>
        <time>2015-03-06T09:20:03Z</time>
      </trkpt>
      <trkpt lat="43.94452" lon="4.98138">
        <ele>109</ele>
        <time>2015-03-06T09:20:04Z</time>
      </trkpt>
      <trkpt lat="43.94459" lon="4.98132">
        <ele>109</ele>
        <time>2015-03-06T09:20:07Z</time>
      </trkpt>
      <trkpt lat="43.94461" lon="4.98131">
        <ele>107</ele>
        <time>2015-03-06T09:20:08Z</time>
      </trkpt>
      <trkpt lat="43.94469" lon="4.98127">
        <ele>105</ele>
        <time>2015-03-06T09:20:11Z</time>
      </trkpt>
      <trkpt lat="43.94472" lon="4.98125">
        <ele>105</ele>
        <time>2015-03-06T09:20:12Z</time>
      </trkpt>
      <trkpt lat="43.94479" lon="4.98122">
        <ele>105</ele>
        <time>2015-03-06T09:20:14Z</time>
      </trkpt>
      <trkpt lat="43.94482" lon="4.98121">
        <ele>105</ele>
        <time>2015-03-06T09:20:15Z</time>
      </trkpt>
      <trkpt lat="43.94489" lon="4.98119">
        <ele>104</ele>
        <time>2015-03-06T09:20:17Z</time>
      </trkpt>
      <trkpt lat="43.94493" lon="4.98118">
        <ele>103</ele>
        <time>2015-03-06T09:20:18Z</time>
      </trkpt>
      <trkpt lat="43.945" lon="4.98115">
        <ele>102</ele>
        <time>2015-03-06T09:20:20Z</time>
      </trkpt>
      <trkpt lat="43.94503" lon="4.98114">
        <ele>102</ele>
        <time>2015-03-06T09:20:21Z</time>
      </trkpt>
      <trkpt lat="43.9451" lon="4.98112">
        <ele>102</ele>
        <time>2015-03-06T09:20:23Z</time>
      </trkpt>
      <trkpt lat="43.94513" lon="4.98112">
        <ele>102</ele>
        <time>2015-03-06T09:20:24Z</time>
      </trkpt>
      <trkpt lat="43.94521" lon="4.98111">
        <ele>101</ele>
        <time>2015-03-06T09:20:26Z</time>
      </trkpt>
      <trkpt lat="43.94524" lon="4.98111">
        <ele>101</ele>
        <time>2015-03-06T09:20:27Z</time>
      </trkpt>
      <trkpt lat="43.94531" lon="4.98109">
        <ele>100</ele>
        <time>2015-03-06T09:20:29Z</time>
      </trkpt>
      <trkpt lat="43.94535" lon="4.98108">
        <ele>100</ele>
        <time>2015-03-06T09:20:30Z</time>
      </trkpt>
      <trkpt lat="43.94542" lon="4.98106">
        <ele>100</ele>
        <time>2015-03-06T09:20:32Z</time>
      </trkpt>
      <trkpt lat="43.94546" lon="4.98105">
        <ele>99</ele>
        <time>2015-03-06T09:20:33Z</time>
      </trkpt>
      <trkpt lat="43.94553" lon="4.98103">
        <ele>98</ele>
        <time>2015-03-06T09:20:35Z</time>
      </trkpt>
      <trkpt lat="43.94557" lon="4.98102">
        <ele>98</ele>
        <time>2015-03-06T09:20:36Z</time>
      </trkpt>
      <trkpt lat="43.94563" lon="4.981">
        <ele>98</ele>
        <time>2015-03-06T09:20:38Z</time>
      </trkpt>
      <trkpt lat="43.94567" lon="4.98099">
        <ele>97</ele>
        <time>2015-03-06T09:20:39Z</time>
      </trkpt>
      <trkpt lat="43.94575" lon="4.98099">
        <ele>97</ele>
        <time>2015-03-06T09:20:42Z</time>
      </trkpt>
      <trkpt lat="43.94578" lon="4.98098">
        <ele>97</ele>
        <time>2015-03-06T09:20:43Z</time>
      </trkpt>
      <trkpt lat="43.94584" lon="4.98094">
        <ele>96</ele>
        <time>2015-03-06T09:20:45Z</time>
      </trkpt>
      <trkpt lat="43.94587" lon="4.98091">
        <ele>96</ele>
        <time>2015-03-06T09:20:46Z</time>
      </trkpt>
      <trkpt lat="43.94592" lon="4.98084">
        <ele>96</ele>
        <time>2015-03-06T09:20:48Z</time>
      </trkpt>
      <trkpt lat="43.94594" lon="4.98081">
        <ele>96</ele>
        <time>2015-03-06T09:20:49Z</time>
      </trkpt>
      <trkpt lat="43.946" lon="4.98073">
        <ele>97</ele>
        <time>2015-03-06T09:20:52Z</time>
      </trkpt>
      <trkpt lat="43.94602" lon="4.98071">
        <ele>97</ele>
        <time>2015-03-06T09:20:53Z</time>
      </trkpt>
      <trkpt lat="43.94609" lon="4.98068">
        <ele>97</ele>
        <time>2015-03-06T09:20:56Z</time>
      </trkpt>
      <trkpt lat="43.94611" lon="4.98068">
        <ele>97</ele>
        <time>2015-03-06T09:20:57Z</time>
      </trkpt>
      <trkpt lat="43.94607" lon="4.98074">
        <ele>98</ele>
        <time>2015-03-06T09:21:08Z</time>
      </trkpt>
      <trkpt lat="43.94603" lon="4.98076">
        <ele>98</ele>
        <time>2015-03-06T09:21:09Z</time>
      </trkpt>
      <trkpt lat="43.94597" lon="4.9808">
        <ele>98</ele>
        <time>2015-03-06T09:21:11Z</time>
      </trkpt>
      <trkpt lat="43.94594" lon="4.98083">
        <ele>98</ele>
        <time>2015-03-06T09:21:12Z</time>
      </trkpt>
      <trkpt lat="43.9459" lon="4.98089">
        <ele>98</ele>
        <time>2015-03-06T09:21:14Z</time>
      </trkpt>
      <trkpt lat="43.94587" lon="4.98091">
        <ele>98</ele>
        <time>2015-03-06T09:21:15Z</time>
      </trkpt>
      <trkpt lat="43.94582" lon="4.98096">
        <ele>98</ele>
        <time>2015-03-06T09:21:17Z</time>
      </trkpt>
      <trkpt lat="43.94579" lon="4.98098">
        <ele>98</ele>
        <time>2015-03-06T09:21:18Z</time>
      </trkpt>
      <trkpt lat="43.94574" lon="4.98107">
        <ele>99</ele>
        <time>2015-03-06T09:21:21Z</time>
      </trkpt>
      <trkpt lat="43.94574" lon="4.98112">
        <ele>99</ele>
        <time>2015-03-06T09:21:22Z</time>
      </trkpt>
      <trkpt lat="43.94575" lon="4.98122">
        <ele>99</ele>
        <time>2015-03-06T09:21:24Z</time>
      </trkpt>
      <trkpt lat="43.94576" lon="4.98127">
        <ele>99</ele>
        <time>2015-03-06T09:21:25Z</time>
      </trkpt>
      <trkpt lat="43.94576" lon="4.98136">
        <ele>99</ele>
        <time>2015-03-06T09:21:27Z</time>
      </trkpt>
      <trkpt lat="43.94577" lon="4.9814">
        <ele>99</ele>
        <time>2015-03-06T09:21:28Z</time>
      </trkpt>
      <trkpt lat="43.94577" lon="4.98149">
        <ele>99</ele>
        <time>2015-03-06T09:21:30Z</time>
      </trkpt>
      <trkpt lat="43.94578" lon="4.98154">
        <ele>99</ele>
        <time>2015-03-06T09:21:31Z</time>
      </trkpt>
      <trkpt lat="43.94579" lon="4.98165">
        <ele>100</ele>
        <time>2015-03-06T09:21:34Z</time>
      </trkpt>
      <trkpt lat="43.94579" lon="4.98169">
        <ele>99</ele>
        <time>2015-03-06T09:21:35Z</time>
      </trkpt>
      <trkpt lat="43.94578" lon="4.98179">
        <ele>98</ele>
        <time>2015-03-06T09:21:38Z</time>
      </trkpt>
      <trkpt lat="43.94578" lon="4.98182">
        <ele>99</ele>
        <time>2015-03-06T09:21:39Z</time>
      </trkpt>
      <trkpt lat="43.94581" lon="4.98191">
        <ele>98</ele>
        <time>2015-03-06T09:21:42Z</time>
      </trkpt>
      <trkpt lat="43.94581" lon="4.98194">
        <ele>98</ele>
        <time>2015-03-06T09:21:43Z</time>
      </trkpt>
      <trkpt lat="43.94581" lon="4.98206">
        <ele>98</ele>
        <time>2015-03-06T09:21:47Z</time>
      </trkpt>
      <trkpt lat="43.94581" lon="4.98209">
        <ele>99</ele>
        <time>2015-03-06T09:21:48Z</time>
      </trkpt>
      <trkpt lat="43.94583" lon="4.98218">
        <ele>101</ele>
        <time>2015-03-06T09:21:51Z</time>
      </trkpt>
      <trkpt lat="43.94584" lon="4.98221">
        <ele>101</ele>
        <time>2015-03-06T09:21:52Z</time>
      </trkpt>
      <trkpt lat="43.94592" lon="4.9822">
        <ele>101</ele>
        <time>2015-03-06T09:21:56Z</time>
      </trkpt>
      <trkpt lat="43.94595" lon="4.98217">
        <ele>101</ele>
        <time>2015-03-06T09:21:57Z</time>
      </trkpt>
      <trkpt lat="43.94601" lon="4.98212">
        <ele>100</ele>
        <time>2015-03-06T09:21:59Z</time>
      </trkpt>
      <trkpt lat="43.94603" lon="4.9821">
        <ele>100</ele>
        <time>2015-03-06T09:22:00Z</time>
      </trkpt>
      <trkpt lat="43.94611" lon="4.98206">
        <ele>100</ele>
        <time>2015-03-06T09:22:03Z</time>
      </trkpt>
      <trkpt lat="43.94613" lon="4.98202">
        <ele>100</ele>
        <time>2015-03-06T09:22:04Z</time>
      </trkpt>
      <trkpt lat="43.94613" lon="4.98194">
        <ele>100</ele>
        <time>2015-03-06T09:22:06Z</time>
      </trkpt>
      <trkpt lat="43.94613" lon="4.9819">
        <ele>100</ele>
        <time>2015-03-06T09:22:07Z</time>
      </trkpt>
      <trkpt lat="43.94614" lon="4.98181">
        <ele>100</ele>
        <time>2015-03-06T09:22:09Z</time>
      </trkpt>
      <trkpt lat="43.94615" lon="4.98177">
        <ele>99</ele>
        <time>2015-03-06T09:22:10Z</time>
      </trkpt>
      <trkpt lat="43.9462" lon="4.98172">
        <ele>99</ele>
        <time>2015-03-06T09:22:12Z</time>
      </trkpt>
      <trkpt lat="43.94622" lon="4.98169">
        <ele>99</ele>
        <time>2015-03-06T09:22:13Z</time>
      </trkpt>
      <trkpt lat="43.94631" lon="4.98167">
        <ele>97</ele>
        <time>2015-03-06T09:22:16Z</time>
      </trkpt>
      <trkpt lat="43.94634" lon="4.98169">
        <ele>96</ele>
        <time>2015-03-06T09:22:17Z</time>
      </trkpt>
      <trkpt lat="43.9464" lon="4.98174">
        <ele>96</ele>
        <time>2015-03-06T09:22:19Z</time>
      </trkpt>
      <trkpt lat="43.94644" lon="4.98176">
        <ele>96</ele>
        <time>2015-03-06T09:22:20Z</time>
      </trkpt>
      <trkpt lat="43.94651" lon="4.98179">
        <ele>95</ele>
        <time>2015-03-06T09:22:22Z</time>
      </trkpt>
      <trkpt lat="43.94654" lon="4.9818">
        <ele>96</ele>
        <time>2015-03-06T09:22:23Z</time>
      </trkpt>
      <trkpt lat="43.94661" lon="4.98182">
        <ele>97</ele>
        <time>2015-03-06T09:22:25Z</time>
      </trkpt>
      <trkpt lat="43.94664" lon="4.98182">
        <ele>97</ele>
        <time>2015-03-06T09:22:26Z</time>
      </trkpt>
      <trkpt lat="43.9467" lon="4.98183">
        <ele>97</ele>
        <time>2015-03-06T09:22:28Z</time>
      </trkpt>
      <trkpt lat="43.94673" lon="4.98184">
        <ele>97</ele>
        <time>2015-03-06T09:22:29Z</time>
      </trkpt>
      <trkpt lat="43.9468" lon="4.98186">
        <ele>98</ele>
        <time>2015-03-06T09:22:31Z</time>
      </trkpt>
      <trkpt lat="43.94683" lon="4.98187">
        <ele>97</ele>
        <time>2015-03-06T09:22:32Z</time>
      </trkpt>
      <trkpt lat="43.94689" lon="4.98189">
        <ele>98</ele>
        <time>2015-03-06T09:22:34Z</time>
      </trkpt>
      <trkpt lat="43.94692" lon="4.9819">
        <ele>97</ele>
        <time>2015-03-06T09:22:35Z</time>
      </trkpt>
      <trkpt lat="43.94698" lon="4.98196">
        <ele>98</ele>
        <time>2015-03-06T09:22:37Z</time>
      </trkpt>
      <trkpt lat="43.947" lon="4.982">
        <ele>97</ele>
        <time>2015-03-06T09:22:38Z</time>
      </trkpt>
      <trkpt lat="43.94702" lon="4.98208">
        <ele>98</ele>
        <time>2015-03-06T09:22:40Z</time>
      </trkpt>
      <trkpt lat="43.94702" lon="4.98213">
        <ele>98</ele>
        <time>2015-03-06T09:22:41Z</time>
      </trkpt>
      <trkpt lat="43.94702" lon="4.98222">
        <ele>99</ele>
        <time>2015-03-06T09:22:43Z</time>
      </trkpt>
      <trkpt lat="43.94702" lon="4.98226">
        <ele>98</ele>
        <time>2015-03-06T09:22:45Z</time>
      </trkpt>
      <trkpt lat="43.94706" lon="4.98235">
        <ele>98</ele>
        <time>2015-03-06T09:22:47Z</time>
      </trkpt>
      <trkpt lat="43.94709" lon="4.98237">
        <ele>99</ele>
        <time>2015-03-06T09:22:48Z</time>
      </trkpt>
      <trkpt lat="43.94715" lon="4.98241">
        <ele>102</ele>
        <time>2015-03-06T09:22:50Z</time>
      </trkpt>
      <trkpt lat="43.94717" lon="4.98243">
        <ele>101</ele>
        <time>2015-03-06T09:22:51Z</time>
      </trkpt>
      <trkpt lat="43.94725" lon="4.98248">
        <ele>101</ele>
        <time>2015-03-06T09:22:54Z</time>
      </trkpt>
      <trkpt lat="43.94728" lon="4.9825">
        <ele>101</ele>
        <time>2015-03-06T09:22:55Z</time>
      </trkpt>
      <trkpt lat="43.94734" lon="4.98253">
        <ele>102</ele>
        <time>2015-03-06T09:22:57Z</time>
      </trkpt>
      <trkpt lat="43.94737" lon="4.98255">
        <ele>102</ele>
        <time>2015-03-06T09:22:58Z</time>
      </trkpt>
      <trkpt lat="43.94742" lon="4.98258">
        <ele>102</ele>
        <time>2015-03-06T09:23:00Z</time>
      </trkpt>
      <trkpt lat="43.94745" lon="4.9826">
        <ele>102</ele>
        <time>2015-03-06T09:23:01Z</time>
      </trkpt>
      <trkpt lat="43.94751" lon="4.98264">
        <ele>103</ele>
        <time>2015-03-06T09:23:03Z</time>
      </trkpt>
      <trkpt lat="43.94753" lon="4.98266">
        <ele>102</ele>
        <time>2015-03-06T09:23:04Z</time>
      </trkpt>
      <trkpt lat="43.94758" lon="4.98272">
        <ele>102</ele>
        <time>2015-03-06T09:23:06Z</time>
      </trkpt>
      <trkpt lat="43.94761" lon="4.98274">
        <ele>102</ele>
        <time>2015-03-06T09:23:07Z</time>
      </trkpt>
      <trkpt lat="43.94765" lon="4.9828">
        <ele>103</ele>
        <time>2015-03-06T09:23:09Z</time>
      </trkpt>
      <trkpt lat="43.94767" lon="4.98282">
        <ele>103</ele>
        <time>2015-03-06T09:23:10Z</time>
      </trkpt>
      <trkpt lat="43.94772" lon="4.98292">
        <ele>103</ele>
        <time>2015-03-06T09:23:13Z</time>
      </trkpt>
      <trkpt lat="43.94774" lon="4.98296">
        <ele>103</ele>
        <time>2015-03-06T09:23:14Z</time>
      </trkpt>
      <trkpt lat="43.9478" lon="4.98305">
        <ele>104</ele>
        <time>2015-03-06T09:23:17Z</time>
      </trkpt>
      <trkpt lat="43.94782" lon="4.98308">
        <ele>104</ele>
        <time>2015-03-06T09:23:18Z</time>
      </trkpt>
      <trkpt lat="43.94787" lon="4.98315">
        <ele>104</ele>
        <time>2015-03-06T09:23:22Z</time>
      </trkpt>
      <trkpt lat="43.94789" lon="4.98317">
        <ele>106</ele>
        <time>2015-03-06T09:23:23Z</time>
      </trkpt>
      <trkpt lat="43.94795" lon="4.98324">
        <ele>108</ele>
        <time>2015-03-06T09:23:26Z</time>
      </trkpt>
      <trkpt lat="43.94796" lon="4.98327">
        <ele>108</ele>
        <time>2015-03-06T09:23:27Z</time>
      </trkpt>
      <trkpt lat="43.94801" lon="4.98338">
        <ele>108</ele>
        <time>2015-03-06T09:23:31Z</time>
      </trkpt>
      <trkpt lat="43.94803" lon="4.9834">
        <ele>108</ele>
        <time>2015-03-06T09:23:32Z</time>
      </trkpt>
      <trkpt lat="43.94809" lon="4.98334">
        <ele>108</ele>
        <time>2015-03-06T09:24:00Z</time>
      </trkpt>
      <trkpt lat="43.94813" lon="4.98334">
        <ele>108</ele>
        <time>2015-03-06T09:24:01Z</time>
      </trkpt>
      <trkpt lat="43.94815" lon="4.98325">
        <ele>105</ele>
        <time>2015-03-06T09:24:24Z</time>
      </trkpt>
      <trkpt lat="43.94818" lon="4.98321">
        <ele>103</ele>
        <time>2015-03-06T09:24:25Z</time>
      </trkpt>
      <trkpt lat="43.94823" lon="4.98314">
        <ele>102</ele>
        <time>2015-03-06T09:24:27Z</time>
      </trkpt>
      <trkpt lat="43.94827" lon="4.98312">
        <ele>103</ele>
        <time>2015-03-06T09:24:28Z</time>
      </trkpt>
      <trkpt lat="43.94834" lon="4.98306">
        <ele>101</ele>
        <time>2015-03-06T09:24:30Z</time>
      </trkpt>
      <trkpt lat="43.94837" lon="4.98303">
        <ele>102</ele>
        <time>2015-03-06T09:24:31Z</time>
      </trkpt>
      <trkpt lat="43.94842" lon="4.98295">
        <ele>102</ele>
        <time>2015-03-06T09:24:33Z</time>
      </trkpt>
      <trkpt lat="43.94844" lon="4.98292">
        <ele>101</ele>
        <time>2015-03-06T09:24:34Z</time>
      </trkpt>
      <trkpt lat="43.94848" lon="4.98284">
        <ele>102</ele>
        <time>2015-03-06T09:24:36Z</time>
      </trkpt>
      <trkpt lat="43.9485" lon="4.9828">
        <ele>102</ele>
        <time>2015-03-06T09:24:37Z</time>
      </trkpt>
      <trkpt lat="43.94856" lon="4.98273">
        <ele>101</ele>
        <time>2015-03-06T09:24:40Z</time>
      </trkpt>
      <trkpt lat="43.94858" lon="4.98272">
        <ele>102</ele>
        <time>2015-03-06T09:24:41Z</time>
      </trkpt>
      <trkpt lat="43.94866" lon="4.98277">
        <ele>104</ele>
        <time>2015-03-06T09:24:46Z</time>
      </trkpt>
      <trkpt lat="43.94868" lon="4.9828">
        <ele>104</ele>
        <time>2015-03-06T09:24:47Z</time>
      </trkpt>
      <trkpt lat="43.94872" lon="4.98288">
        <ele>103</ele>
        <time>2015-03-06T09:24:49Z</time>
      </trkpt>
      <trkpt lat="43.94873" lon="4.98292">
        <ele>102</ele>
        <time>2015-03-06T09:24:50Z</time>
      </trkpt>
      <trkpt lat="43.94876" lon="4.983">
        <ele>102</ele>
        <time>2015-03-06T09:24:52Z</time>
      </trkpt>
      <trkpt lat="43.94876" lon="4.98304">
        <ele>101</ele>
        <time>2015-03-06T09:24:53Z</time>
      </trkpt>
      <trkpt lat="43.94877" lon="4.98312">
        <ele>102</ele>
        <time>2015-03-06T09:24:55Z</time>
      </trkpt>
      <trkpt lat="43.94877" lon="4.98317">
        <ele>102</ele>
        <time>2015-03-06T09:24:56Z</time>
      </trkpt>
      <trkpt lat="43.94881" lon="4.98327">
        <ele>104</ele>
        <time>2015-03-06T09:24:59Z</time>
      </trkpt>
      <trkpt lat="43.94882" lon="4.98331">
        <ele>103</ele>
        <time>2015-03-06T09:25:00Z</time>
      </trkpt>
      <trkpt lat="43.94885" lon="4.98338">
        <ele>105</ele>
        <time>2015-03-06T09:25:02Z</time>
      </trkpt>
      <trkpt lat="43.94887" lon="4.98341">
        <ele>106</ele>
        <time>2015-03-06T09:25:03Z</time>
      </trkpt>
      <trkpt lat="43.9489" lon="4.98352">
        <ele>107</ele>
        <time>2015-03-06T09:25:06Z</time>
      </trkpt>
      <trkpt lat="43.94892" lon="4.98355">
        <ele>110</ele>
        <time>2015-03-06T09:25:07Z</time>
      </trkpt>
      <trkpt lat="43.94897" lon="4.98364">
        <ele>110</ele>
        <time>2015-03-06T09:25:10Z</time>
      </trkpt>
      <trkpt lat="43.94899" lon="4.98367">
        <ele>111</ele>
        <time>2015-03-06T09:25:11Z</time>
      </trkpt>
      <trkpt lat="43.94903" lon="4.98377">
        <ele>112</ele>
        <time>2015-03-06T09:25:16Z</time>
      </trkpt>
      <trkpt lat="43.94904" lon="4.98379">
        <ele>113</ele>
        <time>2015-03-06T09:25:17Z</time>
      </trkpt>
      <trkpt lat="43.94907" lon="4.98387">
        <ele>112</ele>
        <time>2015-03-06T09:25:20Z</time>
      </trkpt>
      <trkpt lat="43.94909" lon="4.98392">
        <ele>112</ele>
        <time>2015-03-06T09:25:21Z</time>
      </trkpt>
      <trkpt lat="43.94912" lon="4.98402">
        <ele>113</ele>
        <time>2015-03-06T09:25:23Z</time>
      </trkpt>
      <trkpt lat="43.94914" lon="4.98406">
        <ele>112</ele>
        <time>2015-03-06T09:25:24Z</time>
      </trkpt>
      <trkpt lat="43.94917" lon="4.98415">
        <ele>112</ele>
        <time>2015-03-06T09:25:26Z</time>
      </trkpt>
      <trkpt lat="43.94919" lon="4.98419">
        <ele>113</ele>
        <time>2015-03-06T09:25:27Z</time>
      </trkpt>
      <trkpt lat="43.94921" lon="4.98429">
        <ele>113</ele>
        <time>2015-03-06T09:25:29Z</time>
      </trkpt>
      <trkpt lat="43.94922" lon="4.98434">
        <ele>113</ele>
        <time>2015-03-06T09:25:30Z</time>
      </trkpt>
      <trkpt lat="43.94923" lon="4.98444">
        <ele>114</ele>
        <time>2015-03-06T09:25:32Z</time>
      </trkpt>
      <trkpt lat="43.94923" lon="4.98449">
        <ele>114</ele>
        <time>2015-03-06T09:25:33Z</time>
      </trkpt>
      <trkpt lat="43.94924" lon="4.98458">
        <ele>110</ele>
        <time>2015-03-06T09:25:35Z</time>
      </trkpt>
      <trkpt lat="43.94925" lon="4.98463">
        <ele>110</ele>
        <time>2015-03-06T09:25:36Z</time>
      </trkpt>
      <trkpt lat="43.94926" lon="4.98472">
        <ele>110</ele>
        <time>2015-03-06T09:25:38Z</time>
      </trkpt>
      <trkpt lat="43.94927" lon="4.98477">
        <ele>110</ele>
        <time>2015-03-06T09:25:39Z</time>
      </trkpt>
      <trkpt lat="43.94929" lon="4.98486">
        <ele>108</ele>
        <time>2015-03-06T09:25:41Z</time>
      </trkpt>
      <trkpt lat="43.9493" lon="4.98491">
        <ele>108</ele>
        <time>2015-03-06T09:25:42Z</time>
      </trkpt>
      <trkpt lat="43.94934" lon="4.985">
        <ele>109</ele>
        <time>2015-03-06T09:25:45Z</time>
      </trkpt>
      <trkpt lat="43.94936" lon="4.98503">
        <ele>108</ele>
        <time>2015-03-06T09:25:46Z</time>
      </trkpt>
      <trkpt lat="43.94941" lon="4.98511">
        <ele>109</ele>
        <time>2015-03-06T09:25:48Z</time>
      </trkpt>
      <trkpt lat="43.94942" lon="4.98517">
        <ele>109</ele>
        <time>2015-03-06T09:25:49Z</time>
      </trkpt>
      <trkpt lat="43.94945" lon="4.98527">
        <ele>110</ele>
        <time>2015-03-06T09:25:51Z</time>
      </trkpt>
      <trkpt lat="43.94946" lon="4.98532">
        <ele>110</ele>
        <time>2015-03-06T09:25:52Z</time>
      </trkpt>
      <trkpt lat="43.94948" lon="4.98541">
        <ele>111</ele>
        <time>2015-03-06T09:25:54Z</time>
      </trkpt>
      <trkpt lat="43.94949" lon="4.98546">
        <ele>111</ele>
        <time>2015-03-06T09:25:55Z</time>
      </trkpt>
      <trkpt lat="43.94951" lon="4.98555">
        <ele>111</ele>
        <time>2015-03-06T09:25:57Z</time>
      </trkpt>
      <trkpt lat="43.94952" lon="4.98559">
        <ele>111</ele>
        <time>2015-03-06T09:25:58Z</time>
      </trkpt>
      <trkpt lat="43.94952" lon="4.98568">
        <ele>110</ele>
        <time>2015-03-06T09:26:00Z</time>
      </trkpt>
      <trkpt lat="43.94952" lon="4.98573">
        <ele>110</ele>
        <time>2015-03-06T09:26:01Z</time>
      </trkpt>
      <trkpt lat="43.94952" lon="4.98583">
        <ele>110</ele>
        <time>2015-03-06T09:26:03Z</time>
      </trkpt>
      <trkpt lat="43.94951" lon="4.98588">
        <ele>108</ele>
        <time>2015-03-06T09:26:04Z</time>
      </trkpt>
      <trkpt lat="43.94948" lon="4.98597">
        <ele>109</ele>
        <time>2015-03-06T09:26:06Z</time>
      </trkpt>
      <trkpt lat="43.94947" lon="4.98601">
        <ele>107</ele>
        <time>2015-03-06T09:26:07Z</time>
      </trkpt>
      <trkpt lat="43.94944" lon="4.9861">
        <ele>109</ele>
        <time>2015-03-06T09:26:09Z</time>
      </trkpt>
      <trkpt lat="43.94942" lon="4.98614">
        <ele>109</ele>
        <time>2015-03-06T09:26:10Z</time>
      </trkpt>
      <trkpt lat="43.94939" lon="4.98622">
        <ele>109</ele>
        <time>2015-03-06T09:26:12Z</time>
      </trkpt>
      <trkpt lat="43.94937" lon="4.98626">
        <ele>110</ele>
        <time>2015-03-06T09:26:13Z</time>
      </trkpt>
      <trkpt lat="43.94933" lon="4.98634">
        <ele>109</ele>
        <time>2015-03-06T09:26:15Z</time>
      </trkpt>
      <trkpt lat="43.94932" lon="4.98638">
        <ele>109</ele>
        <time>2015-03-06T09:26:16Z</time>
      </trkpt>
      <trkpt lat="43.9493" lon="4.98647">
        <ele>109</ele>
        <time>2015-03-06T09:26:18Z</time>
      </trkpt>
      <trkpt lat="43.94929" lon="4.98651">
        <ele>109</ele>
        <time>2015-03-06T09:26:19Z</time>
      </trkpt>
      <trkpt lat="43.94928" lon="4.9866">
        <ele>108</ele>
        <time>2015-03-06T09:26:21Z</time>
      </trkpt>
      <trkpt lat="43.94928" lon="4.98665">
        <ele>108</ele>
        <time>2015-03-06T09:26:22Z</time>
      </trkpt>
      <trkpt lat="43.94928" lon="4.98673">
        <ele>109</ele>
        <time>2015-03-06T09:26:24Z</time>
      </trkpt>
      <trkpt lat="43.94928" lon="4.98678">
        <ele>108</ele>
        <time>2015-03-06T09:26:25Z</time>
      </trkpt>
      <trkpt lat="43.94927" lon="4.98686">
        <ele>108</ele>
        <time>2015-03-06T09:26:27Z</time>
      </trkpt>
      <trkpt lat="43.94927" lon="4.98691">
        <ele>108</ele>
        <time>2015-03-06T09:26:28Z</time>
      </trkpt>
      <trkpt lat="43.94925" lon="4.987">
        <ele>108</ele>
        <time>2015-03-06T09:26:30Z</time>
      </trkpt>
      <trkpt lat="43.94924" lon="4.98704">
        <ele>108</ele>
        <time>2015-03-06T09:26:31Z</time>
      </trkpt>
      <trkpt lat="43.94922" lon="4.98713">
        <ele>107</ele>
        <time>2015-03-06T09:26:33Z</time>
      </trkpt>
      <trkpt lat="43.94921" lon="4.98718">
        <ele>107</ele>
        <time>2015-03-06T09:26:34Z</time>
      </trkpt>
      <trkpt lat="43.9492" lon="4.98727">
        <ele>106</ele>
        <time>2015-03-06T09:26:36Z</time>
      </trkpt>
      <trkpt lat="43.94919" lon="4.98732">
        <ele>106</ele>
        <time>2015-03-06T09:26:37Z</time>
      </trkpt>
      <trkpt lat="43.94918" lon="4.9874">
        <ele>106</ele>
        <time>2015-03-06T09:26:39Z</time>
      </trkpt>
      <trkpt lat="43.94918" lon="4.98745">
        <ele>106</ele>
        <time>2015-03-06T09:26:40Z</time>
      </trkpt>
      <trkpt lat="43.94916" lon="4.98754">
        <ele>104</ele>
        <time>2015-03-06T09:26:42Z</time>
      </trkpt>
      <trkpt lat="43.94915" lon="4.98758">
        <ele>103</ele>
        <time>2015-03-06T09:26:43Z</time>
      </trkpt>
      <trkpt lat="43.94913" lon="4.98767">
        <ele>104</ele>
        <time>2015-03-06T09:26:45Z</time>
      </trkpt>
      <trkpt lat="43.94911" lon="4.98772">
        <ele>104</ele>
        <time>2015-03-06T09:26:46Z</time>
      </trkpt>
      <trkpt lat="43.94909" lon="4.9878">
        <ele>104</ele>
        <time>2015-03-06T09:26:48Z</time>
      </trkpt>
      <trkpt lat="43.94908" lon="4.98785">
        <ele>103</ele>
        <time>2015-03-06T09:26:49Z</time>
      </trkpt>
      <trkpt lat="43.94904" lon="4.98794">
        <ele>103</ele>
        <time>2015-03-06T09:26:54Z</time>
      </trkpt>
      <trkpt lat="43.94902" lon="4.98794">
        <ele>102</ele>
        <time>2015-03-06T09:26:55Z</time>
      </trkpt>
      <trkpt lat="43.94897" lon="4.98787">
        <ele>103</ele>
        <time>2015-03-06T09:26:59Z</time>
      </trkpt>
      <trkpt lat="43.94896" lon="4.98785">
        <ele>102</ele>
        <time>2015-03-06T09:27:00Z</time>
      </trkpt>
      <trkpt lat="43.94891" lon="4.98774">
        <ele>105</ele>
        <time>2015-03-06T09:27:05Z</time>
      </trkpt>
      <trkpt lat="43.9489" lon="4.98773">
        <ele>106</ele>
        <time>2015-03-06T09:27:06Z</time>
      </trkpt>
      <trkpt lat="43.94887" lon="4.98763">
        <ele>106</ele>
        <time>2015-03-06T09:27:11Z</time>
      </trkpt>
      <trkpt lat="43.94887" lon="4.98761">
        <ele>108</ele>
        <time>2015-03-06T09:27:12Z</time>
      </trkpt>
      <trkpt lat="43.94882" lon="4.98751">
        <ele>108</ele>
        <time>2015-03-06T09:27:16Z</time>
      </trkpt>
      <trkpt lat="43.9488" lon="4.98748">
        <ele>108</ele>
        <time>2015-03-06T09:27:17Z</time>
      </trkpt>
      <trkpt lat="43.94876" lon="4.9874">
        <ele>110</ele>
        <time>2015-03-06T09:27:20Z</time>
      </trkpt>
      <trkpt lat="43.94874" lon="4.98738">
        <ele>112</ele>
        <time>2015-03-06T09:27:21Z</time>
      </trkpt>
      <trkpt lat="43.94868" lon="4.98731">
        <ele>113</ele>
        <time>2015-03-06T09:27:24Z</time>
      </trkpt>
      <trkpt lat="43.94867" lon="4.98729">
        <ele>113</ele>
        <time>2015-03-06T09:27:25Z</time>
      </trkpt>
      <trkpt lat="43.9486" lon="4.98722">
        <ele>115</ele>
        <time>2015-03-06T09:27:29Z</time>
      </trkpt>
      <trkpt lat="43.94859" lon="4.98719">
        <ele>116</ele>
        <time>2015-03-06T09:27:30Z</time>
      </trkpt>
      <trkpt lat="43.94853" lon="4.98712">
        <ele>117</ele>
        <time>2015-03-06T09:27:34Z</time>
      </trkpt>
      <trkpt lat="43.94852" lon="4.9871">
        <ele>117</ele>
        <time>2015-03-06T09:27:35Z</time>
      </trkpt>
      <trkpt lat="43.94847" lon="4.98702">
        <ele>117</ele>
        <time>2015-03-06T09:27:39Z</time>
      </trkpt>
      <trkpt lat="43.94845" lon="4.987">
        <ele>118</ele>
        <time>2015-03-06T09:27:40Z</time>
      </trkpt>
      <trkpt lat="43.94837" lon="4.98698">
        <ele>118</ele>
        <time>2015-03-06T09:27:44Z</time>
      </trkpt>
      <trkpt lat="43.94835" lon="4.98697">
        <ele>118</ele>
        <time>2015-03-06T09:27:45Z</time>
      </trkpt>
      <trkpt lat="43.94828" lon="4.9869">
        <ele>120</ele>
        <time>2015-03-06T09:28:25Z</time>
      </trkpt>
      <trkpt lat="43.94827" lon="4.98687">
        <ele>121</ele>
        <time>2015-03-06T09:28:26Z</time>
      </trkpt>
      <trkpt lat="43.94823" lon="4.98678">
        <ele>125</ele>
        <time>2015-03-06T09:28:30Z</time>
      </trkpt>
      <trkpt lat="43.94822" lon="4.98676">
        <ele>124</ele>
        <time>2015-03-06T09:28:31Z</time>
      </trkpt>
      <trkpt lat="43.94817" lon="4.98666">
        <ele>119</ele>
        <time>2015-03-06T09:28:36Z</time>
      </trkpt>
      <trkpt lat="43.94816" lon="4.98662">
        <ele>121</ele>
        <time>2015-03-06T09:28:37Z</time>
      </trkpt>
      <trkpt lat="43.94809" lon="4.98656">
        <ele>125</ele>
        <time>2015-03-06T09:28:40Z</time>
      </trkpt>
      <trkpt lat="43.94807" lon="4.98654">
        <ele>126</ele>
        <time>2015-03-06T09:28:41Z</time>
      </trkpt>
      <trkpt lat="43.94804" lon="4.98646">
        <ele>123</ele>
        <time>2015-03-06T09:28:44Z</time>
      </trkpt>
      <trkpt lat="43.94802" lon="4.98644">
        <ele>123</ele>
        <time>2015-03-06T09:28:45Z</time>
      </trkpt>
      <trkpt lat="43.94798" lon="4.98633">
        <ele>122</ele>
        <time>2015-03-06T09:28:57Z</time>
      </trkpt>
      <trkpt lat="43.94798" lon="4.98631">
        <ele>122</ele>
        <time>2015-03-06T09:28:58Z</time>
      </trkpt>
      <trkpt lat="43.94794" lon="4.98622">
        <ele>123</ele>
        <time>2015-03-06T09:29:02Z</time>
      </trkpt>
      <trkpt lat="43.94793" lon="4.98619">
        <ele>124</ele>
        <time>2015-03-06T09:29:03Z</time>
      </trkpt>
      <trkpt lat="43.94789" lon="4.9861">
        <ele>123</ele>
        <time>2015-03-06T09:29:07Z</time>
      </trkpt>
      <trkpt lat="43.94788" lon="4.98607">
        <ele>123</ele>
        <time>2015-03-06T09:29:08Z</time>
      </trkpt>
      <trkpt lat="43.94782" lon="4.986">
        <ele>123</ele>
        <time>2015-03-06T09:29:12Z</time>
      </trkpt>
      <trkpt lat="43.9478" lon="4.98599">
        <ele>124</ele>
        <time>2015-03-06T09:29:13Z</time>
      </trkpt>
      <trkpt lat="43.94774" lon="4.9859">
        <ele>123</ele>
        <time>2015-03-06T09:29:17Z</time>
      </trkpt>
      <trkpt lat="43.94772" lon="4.98588">
        <ele>123</ele>
        <time>2015-03-06T09:29:18Z</time>
      </trkpt>
      <trkpt lat="43.94765" lon="4.98582">
        <ele>122</ele>
        <time>2015-03-06T09:29:21Z</time>
      </trkpt>
      <trkpt lat="43.94763" lon="4.98581">
        <ele>122</ele>
        <time>2015-03-06T09:29:22Z</time>
      </trkpt>
      <trkpt lat="43.94757" lon="4.98579">
        <ele>122</ele>
        <time>2015-03-06T09:30:00Z</time>
      </trkpt>
      <trkpt lat="43.94754" lon="4.98578">
        <ele>124</ele>
        <time>2015-03-06T09:30:01Z</time>
      </trkpt>
      <trkpt lat="43.94747" lon="4.98575">
        <ele>125</ele>
        <time>2015-03-06T09:30:04Z</time>
      </trkpt>
      <trkpt lat="43.94745" lon="4.98573">
        <ele>123</ele>
        <time>2015-03-06T09:30:05Z</time>
      </trkpt>
      <trkpt lat="43.94737" lon="4.98567">
        <ele>122</ele>
        <time>2015-03-06T09:30:09Z</time>
      </trkpt>
      <trkpt lat="43.94735" lon="4.98567">
        <ele>123</ele>
        <time>2015-03-06T09:30:10Z</time>
      </trkpt>
      <trkpt lat="43.94728" lon="4.98567">
        <ele>125</ele>
        <time>2015-03-06T09:30:13Z</time>
      </trkpt>
      <trkpt lat="43.94726" lon="4.98568">
        <ele>124</ele>
        <time>2015-03-06T09:30:14Z</time>
      </trkpt>
      <trkpt lat="43.94717" lon="4.98572">
        <ele>125</ele>
        <time>2015-03-06T09:30:18Z</time>
      </trkpt>
      <trkpt lat="43.94715" lon="4.98573">
        <ele>125</ele>
        <time>2015-03-06T09:30:19Z</time>
      </trkpt>
      <trkpt lat="43.94707" lon="4.98576">
        <ele>126</ele>
        <time>2015-03-06T09:30:23Z</time>
      </trkpt>
      <trkpt lat="43.94706" lon="4.98577">
        <ele>127</ele>
        <time>2015-03-06T09:30:24Z</time>
      </trkpt>
      <trkpt lat="43.94697" lon="4.98582">
        <ele>126</ele>
        <time>2015-03-06T09:30:29Z</time>
      </trkpt>
      <trkpt lat="43.94696" lon="4.98581">
        <ele>127</ele>
        <time>2015-03-06T09:30:30Z</time>
      </trkpt>
      <trkpt lat="43.94688" lon="4.98583">
        <ele>128</ele>
        <time>2015-03-06T09:30:38Z</time>
      </trkpt>
      <trkpt lat="43.94686" lon="4.98584">
        <ele>128</ele>
        <time>2015-03-06T09:30:39Z</time>
      </trkpt>
      <trkpt lat="43.94677" lon="4.98585">
        <ele>129</ele>
        <time>2015-03-06T09:30:43Z</time>
      </trkpt>
      <trkpt lat="43.94676" lon="4.98586">
        <ele>128</ele>
        <time>2015-03-06T09:30:44Z</time>
      </trkpt>
      <trkpt lat="43.94667" lon="4.98589">
        <ele>129</ele>
        <time>2015-03-06T09:30:49Z</time>
      </trkpt>
      <trkpt lat="43.94666" lon="4.98589">
        <ele>129</ele>
        <time>2015-03-06T09:30:50Z</time>
      </trkpt>
      <trkpt lat="43.94657" lon="4.98593">
        <ele>130</ele>
        <time>2015-03-06T09:30:55Z</time>
      </trkpt>
      <trkpt lat="43.94655" lon="4.98593">
        <ele>130</ele>
        <time>2015-03-06T09:30:56Z</time>
      </trkpt>
      <trkpt lat="43.94648" lon="4.98594">
        <ele>132</ele>
        <time>2015-03-06T09:31:00Z</time>
      </trkpt>
      <trkpt lat="43.94645" lon="4.98595">
        <ele>132</ele>
        <time>2015-03-06T09:31:01Z</time>
      </trkpt>
      <trkpt lat="43.94638" lon="4.98597">
        <ele>132</ele>
        <time>2015-03-06T09:31:05Z</time>
      </trkpt>
      <trkpt lat="43.94636" lon="4.98597">
        <ele>132</ele>
        <time>2015-03-06T09:31:06Z</time>
      </trkpt>
      <trkpt lat="43.94628" lon="4.98599">
        <ele>135</ele>
        <time>2015-03-06T09:31:12Z</time>
      </trkpt>
      <trkpt lat="43.94627" lon="4.986">
        <ele>136</ele>
        <time>2015-03-06T09:31:13Z</time>
      </trkpt>
      <trkpt lat="43.94619" lon="4.98602">
        <ele>134</ele>
        <time>2015-03-06T09:31:17Z</time>
      </trkpt>
      <trkpt lat="43.94618" lon="4.98602">
        <ele>135</ele>
        <time>2015-03-06T09:31:18Z</time>
      </trkpt>
      <trkpt lat="43.9461" lon="4.98603">
        <ele>137</ele>
        <time>2015-03-06T09:31:38Z</time>
      </trkpt>
      <trkpt lat="43.94608" lon="4.98604">
        <ele>138</ele>
        <time>2015-03-06T09:31:39Z</time>
      </trkpt>
      <trkpt lat="43.94601" lon="4.98608">
        <ele>140</ele>
        <time>2015-03-06T09:31:44Z</time>
      </trkpt>
      <trkpt lat="43.94599" lon="4.98608">
        <ele>140</ele>
        <time>2015-03-06T09:31:45Z</time>
      </trkpt>
      <trkpt lat="43.94591" lon="4.9861">
        <ele>139</ele>
        <time>2015-03-06T09:31:49Z</time>
      </trkpt>
      <trkpt lat="43.94589" lon="4.9861">
        <ele>139</ele>
        <time>2015-03-06T09:31:50Z</time>
      </trkpt>
      <trkpt lat="43.94581" lon="4.98611">
        <ele>139</ele>
        <time>2015-03-06T09:31:54Z</time>
      </trkpt>
      <trkpt lat="43.9458" lon="4.98612">
        <ele>139</ele>
        <time>2015-03-06T09:31:55Z</time>
      </trkpt>
      <trkpt lat="43.94571" lon="4.98614">
        <ele>138</ele>
        <time>2015-03-06T09:32:01Z</time>
      </trkpt>
      <trkpt lat="43.9457" lon="4.98614">
        <ele>138</ele>
        <time>2015-03-06T09:32:02Z</time>
      </trkpt>
      <trkpt lat="43.94561" lon="4.98612">
        <ele>142</ele>
        <time>2015-03-06T09:32:15Z</time>
      </trkpt>
      <trkpt lat="43.94561" lon="4.98612">
        <ele>143</ele>
        <time>2015-03-06T09:32:16Z</time>
      </trkpt>
      <trkpt lat="43.94553" lon="4.98615">
        <ele>144</ele>
        <time>2015-03-06T09:32:29Z</time>
      </trkpt>
      <trkpt lat="43.94552" lon="4.98615">
        <ele>142</ele>
        <time>2015-03-06T09:32:30Z</time>
      </trkpt>
      <trkpt lat="43.94543" lon="4.98614">
        <ele>142</ele>
        <time>2015-03-06T09:32:42Z</time>
      </trkpt>
      <trkpt lat="43.94542" lon="4.98614">
        <ele>142</ele>
        <time>2015-03-06T09:32:43Z</time>
      </trkpt>
      <trkpt lat="43.94533" lon="4.98615">
        <ele>148</ele>
        <time>2015-03-06T09:32:52Z</time>
      </trkpt>
      <trkpt lat="43.94532" lon="4.98614">
        <ele>148</ele>
        <time>2015-03-06T09:32:53Z</time>
      </trkpt>
      <trkpt lat="43.94525" lon="4.9861">
        <ele>152</ele>
        <time>2015-03-06T09:33:00Z</time>
      </trkpt>
      <trkpt lat="43.94524" lon="4.98609">
        <ele>152</ele>
        <time>2015-03-06T09:33:01Z</time>
      </trkpt>
      <trkpt lat="43.94517" lon="4.98603">
        <ele>154</ele>
        <time>2015-03-06T09:33:08Z</time>
      </trkpt>
      <trkpt lat="43.94516" lon="4.98602">
        <ele>153</ele>
        <time>2015-03-06T09:33:09Z</time>
      </trkpt>
      <trkpt lat="43.9451" lon="4.98594">
        <ele>156</ele>
        <time>2015-03-06T09:33:39Z</time>
      </trkpt>
      <trkpt lat="43.94509" lon="4.98592">
        <ele>157</ele>
        <time>2015-03-06T09:33:40Z</time>
      </trkpt>
      <trkpt lat="43.94507" lon="4.98582">
        <ele>156</ele>
        <time>2015-03-06T09:33:44Z</time>
      </trkpt>
      <trkpt lat="43.94507" lon="4.9858">
        <ele>155</ele>
        <time>2015-03-06T09:33:45Z</time>
      </trkpt>
      <trkpt lat="43.94515" lon="4.98578">
        <ele>159</ele>
        <time>2015-03-06T09:34:05Z</time>
      </trkpt>
      <trkpt lat="43.94516" lon="4.98577">
        <ele>158</ele>
        <time>2015-03-06T09:34:06Z</time>
      </trkpt>
      <trkpt lat="43.94519" lon="4.98566">
        <ele>162</ele>
        <time>2015-03-06T09:34:15Z</time>
      </trkpt>
      <trkpt lat="43.94519" lon="4.98564">
        <ele>161</ele>
        <time>2015-03-06T09:34:16Z</time>
      </trkpt>
      <trkpt lat="43.94527" lon="4.9857">
        <ele>163</ele>
        <time>2015-03-06T09:35:05Z</time>
      </trkpt>
      <trkpt lat="43.94527" lon="4.9857">
        <ele>163</ele>
        <time>2015-03-06T09:35:06Z</time>
      </trkpt>
      <trkpt lat="43.9452" lon="4.98572">
        <ele>159</ele>
        <time>2015-03-06T09:37:13Z</time>
      </trkpt>
      <trkpt lat="43.94519" lon="4.98576">
        <ele>158</ele>
        <time>2015-03-06T09:37:14Z</time>
      </trkpt>
      <trkpt lat="43.94514" lon="4.98582">
        <ele>158</ele>
        <time>2015-03-06T09:37:16Z</time>
      </trkpt>
      <trkpt lat="43.94511" lon="4.98582">
        <ele>158</ele>
        <time>2015-03-06T09:37:17Z</time>
      </trkpt>
      <trkpt lat="43.94502" lon="4.98581">
        <ele>158</ele>
        <time>2015-03-06T09:37:25Z</time>
      </trkpt>
      <trkpt lat="43.94501" lon="4.98582">
        <ele>158</ele>
        <time>2015-03-06T09:37:26Z</time>
      </trkpt>
      <trkpt lat="43.94496" lon="4.98592">
        <ele>156</ele>
        <time>2015-03-06T09:37:32Z</time>
      </trkpt>
      <trkpt lat="43.94495" lon="4.98594">
        <ele>156</ele>
        <time>2015-03-06T09:37:33Z</time>
      </trkpt>
      <trkpt lat="43.94491" lon="4.98602">
        <ele>156</ele>
        <time>2015-03-06T09:37:35Z</time>
      </trkpt>
      <trkpt lat="43.9449" lon="4.98606">
        <ele>156</ele>
        <time>2015-03-06T09:37:36Z</time>
      </trkpt>
      <trkpt lat="43.94493" lon="4.98614">
        <ele>156</ele>
        <time>2015-03-06T09:37:38Z</time>
      </trkpt>
      <trkpt lat="43.94495" lon="4.98617">
        <ele>155</ele>
        <time>2015-03-06T09:37:39Z</time>
      </trkpt>
      <trkpt lat="43.94501" lon="4.98625">
        <ele>154</ele>
        <time>2015-03-06T09:37:42Z</time>
      </trkpt>
      <trkpt lat="43.94501" lon="4.98628">
        <ele>153</ele>
        <time>2015-03-06T09:37:43Z</time>
      </trkpt>
      <trkpt lat="43.94502" lon="4.98639">
        <ele>152</ele>
        <time>2015-03-06T09:37:46Z</time>
      </trkpt>
      <trkpt lat="43.94503" lon="4.98643">
        <ele>151</ele>
        <time>2015-03-06T09:37:47Z</time>
      </trkpt>
      <trkpt lat="43.94507" lon="4.98653">
        <ele>153</ele>
        <time>2015-03-06T09:37:50Z</time>
      </trkpt>
      <trkpt lat="43.9451" lon="4.98655">
        <ele>155</ele>
        <time>2015-03-06T09:37:51Z</time>
      </trkpt>
      <trkpt lat="43.94517" lon="4.98659">
        <ele>156</ele>
        <time>2015-03-06T09:37:54Z</time>
      </trkpt>
      <trkpt lat="43.94519" lon="4.9866">
        <ele>157</ele>
        <time>2015-03-06T09:37:55Z</time>
      </trkpt>
      <trkpt lat="43.94525" lon="4.98664">
        <ele>158</ele>
        <time>2015-03-06T09:37:58Z</time>
      </trkpt>
      <trkpt lat="43.94527" lon="4.98665">
        <ele>157</ele>
        <time>2015-03-06T09:37:59Z</time>
      </trkpt>
      <trkpt lat="43.94536" lon="4.98669">
        <ele>161</ele>
        <time>2015-03-06T09:38:03Z</time>
      </trkpt>
      <trkpt lat="43.94538" lon="4.98669">
        <ele>161</ele>
        <time>2015-03-06T09:38:04Z</time>
      </trkpt>
      <trkpt lat="43.94546" lon="4.9867">
        <ele>161</ele>
        <time>2015-03-06T09:38:09Z</time>
      </trkpt>
      <trkpt lat="43.94547" lon="4.98671">
        <ele>162</ele>
        <time>2015-03-06T09:38:10Z</time>
      </trkpt>
      <trkpt lat="43.94553" lon="4.98674">
        <ele>160</ele>
        <time>2015-03-06T09:38:51Z</time>
      </trkpt>
      <trkpt lat="43.94556" lon="4.98675">
        <ele>160</ele>
        <time>2015-03-06T09:38:52Z</time>
      </trkpt>
      <trkpt lat="43.94563" lon="4.98678">
        <ele>159</ele>
        <time>2015-03-06T09:38:54Z</time>
      </trkpt>
      <trkpt lat="43.94567" lon="4.9868">
        <ele>159</ele>
        <time>2015-03-06T09:38:55Z</time>
      </trkpt>
      <trkpt lat="43.94573" lon="4.98685">
        <ele>159</ele>
        <time>2015-03-06T09:38:57Z</time>
      </trkpt>
      <trkpt lat="43.94576" lon="4.98689">
        <ele>159</ele>
        <time>2015-03-06T09:38:58Z</time>
      </trkpt>
      <trkpt lat="43.9458" lon="4.98696">
        <ele>158</ele>
        <time>2015-03-06T09:39:00Z</time>
      </trkpt>
      <trkpt lat="43.94582" lon="4.98701">
        <ele>158</ele>
        <time>2015-03-06T09:39:01Z</time>
      </trkpt>
      <trkpt lat="43.94586" lon="4.98709">
        <ele>157</ele>
        <time>2015-03-06T09:39:03Z</time>
      </trkpt>
      <trkpt lat="43.94588" lon="4.98714">
        <ele>157</ele>
        <time>2015-03-06T09:39:04Z</time>
      </trkpt>
      <trkpt lat="43.94593" lon="4.98723">
        <ele>156</ele>
        <time>2015-03-06T09:39:06Z</time>
      </trkpt>
      <trkpt lat="43.94595" lon="4.98727">
        <ele>155</ele>
        <time>2015-03-06T09:39:07Z</time>
      </trkpt>
      <trkpt lat="43.94599" lon="4.98735">
        <ele>154</ele>
        <time>2015-03-06T09:39:09Z</time>
      </trkpt>
      <trkpt lat="43.946" lon="4.98738">
        <ele>154</ele>
        <time>2015-03-06T09:39:10Z</time>
      </trkpt>
      <trkpt lat="43.94605" lon="4.98743">
        <ele>154</ele>
        <time>2015-03-06T09:39:16Z</time>
      </trkpt>
      <trkpt lat="43.94608" lon="4.98744">
        <ele>153</ele>
        <time>2015-03-06T09:39:17Z</time>
      </trkpt>
      <trkpt lat="43.94616" lon="4.98745">
        <ele>154</ele>
        <time>2015-03-06T09:39:20Z</time>
      </trkpt>
      <trkpt lat="43.94618" lon="4.98745">
        <ele>154</ele>
        <time>2015-03-06T09:39:21Z</time>
      </trkpt>
      <trkpt lat="43.94622" lon="4.98753">
        <ele>152</ele>
        <time>2015-03-06T09:39:38Z</time>
      </trkpt>
      <trkpt lat="43.94623" lon="4.98756">
        <ele>151</ele>
        <time>2015-03-06T09:39:39Z</time>
      </trkpt>
      <trkpt lat="43.94628" lon="4.98764">
        <ele>149</ele>
        <time>2015-03-06T09:39:42Z</time>
      </trkpt>
      <trkpt lat="43.94629" lon="4.98765">
        <ele>149</ele>
        <time>2015-03-06T09:39:43Z</time>
      </trkpt>
      <trkpt lat="43.94636" lon="4.98758">
        <ele>149</ele>
        <time>2015-03-06T09:39:57Z</time>
      </trkpt>
      <trkpt lat="43.94636" lon="4.98757">
        <ele>148</ele>
        <time>2015-03-06T09:39:58Z</time>
      </trkpt>
      <trkpt lat="43.94644" lon="4.98752">
        <ele>146</ele>
        <time>2015-03-06T09:40:05Z</time>
      </trkpt>
      <trkpt lat="43.94645" lon="4.98752">
        <ele>145</ele>
        <time>2015-03-06T09:40:06Z</time>
      </trkpt>
      <trkpt lat="43.94653" lon="4.98749">
        <ele>144</ele>
        <time>2015-03-06T09:40:13Z</time>
      </trkpt>
      <trkpt lat="43.94655" lon="4.98749">
        <ele>144</ele>
        <time>2015-03-06T09:40:14Z</time>
      </trkpt>
      <trkpt lat="43.94664" lon="4.98752">
        <ele>142</ele>
        <time>2015-03-06T09:40:18Z</time>
      </trkpt>
      <trkpt lat="43.94665" lon="4.98753">
        <ele>141</ele>
        <time>2015-03-06T09:40:19Z</time>
      </trkpt>
      <trkpt lat="43.94671" lon="4.98759">
        <ele>141</ele>
        <time>2015-03-06T09:40:27Z</time>
      </trkpt>
      <trkpt lat="43.94673" lon="4.98762">
        <ele>141</ele>
        <time>2015-03-06T09:40:28Z</time>
      </trkpt>
      <trkpt lat="43.9468" lon="4.98768">
        <ele>138</ele>
        <time>2015-03-06T09:40:32Z</time>
      </trkpt>
      <trkpt lat="43.94682" lon="4.98768">
        <ele>139</ele>
        <time>2015-03-06T09:40:33Z</time>
      </trkpt>
      <trkpt lat="43.94688" lon="4.98759">
        <ele>139</ele>
        <time>2015-03-06T09:40:39Z</time>
      </trkpt>
      <trkpt lat="43.94687" lon="4.98757">
        <ele>139</ele>
        <time>2015-03-06T09:40:40Z</time>
      </trkpt>
      <trkpt lat="43.94692" lon="4.98749">
        <ele>136</ele>
        <time>2015-03-06T09:40:48Z</time>
      </trkpt>
      <trkpt lat="43.94694" lon="4.98748">
        <ele>136</ele>
        <time>2015-03-06T09:40:49Z</time>
      </trkpt>
      <trkpt lat="43.947" lon="4.98746">
        <ele>134</ele>
        <time>2015-03-06T09:40:52Z</time>
      </trkpt>
      <trkpt lat="43.94703" lon="4.98746">
        <ele>134</ele>
        <time>2015-03-06T09:40:53Z</time>
      </trkpt>
      <trkpt lat="43.9471" lon="4.98747">
        <ele>133</ele>
        <time>2015-03-06T09:40:56Z</time>
      </trkpt>
      <trkpt lat="43.94713" lon="4.98747">
        <ele>133</ele>
        <time>2015-03-06T09:40:57Z</time>
      </trkpt>
      <trkpt lat="43.9472" lon="4.98746">
        <ele>134</ele>
        <time>2015-03-06T09:41:00Z</time>
      </trkpt>
      <trkpt lat="43.94722" lon="4.98746">
        <ele>134</ele>
        <time>2015-03-06T09:41:01Z</time>
      </trkpt>
      <trkpt lat="43.94728" lon="4.98742">
        <ele>133</ele>
        <time>2015-03-06T09:41:26Z</time>
      </trkpt>
      <trkpt lat="43.94731" lon="4.9874">
        <ele>133</ele>
        <time>2015-03-06T09:41:27Z</time>
      </trkpt>
      <trkpt lat="43.94737" lon="4.98736">
        <ele>131</ele>
        <time>2015-03-06T09:41:29Z</time>
      </trkpt>
      <trkpt lat="43.9474" lon="4.98735">
        <ele>130</ele>
        <time>2015-03-06T09:41:30Z</time>
      </trkpt>
      <trkpt lat="43.94748" lon="4.98733">
        <ele>131</ele>
        <time>2015-03-06T09:41:32Z</time>
      </trkpt>
      <trkpt lat="43.94751" lon="4.98733">
        <ele>130</ele>
        <time>2015-03-06T09:41:33Z</time>
      </trkpt>
      <trkpt lat="43.94759" lon="4.98729">
        <ele>128</ele>
        <time>2015-03-06T09:41:40Z</time>
      </trkpt>
      <trkpt lat="43.9476" lon="4.98727">
        <ele>128</ele>
        <time>2015-03-06T09:41:41Z</time>
      </trkpt>
      <trkpt lat="43.94769" lon="4.98725">
        <ele>130</ele>
        <time>2015-03-06T09:41:45Z</time>
      </trkpt>
      <trkpt lat="43.94771" lon="4.98727">
        <ele>130</ele>
        <time>2015-03-06T09:41:46Z</time>
      </trkpt>
      <trkpt lat="43.94779" lon="4.98721">
        <ele>127</ele>
        <time>2015-03-06T09:42:01Z</time>
      </trkpt>
      <trkpt lat="43.9478" lon="4.98719">
        <ele>127</ele>
        <time>2015-03-06T09:42:02Z</time>
      </trkpt>
      <trkpt lat="43.94784" lon="4.98709">
        <ele>127</ele>
        <time>2015-03-06T09:42:06Z</time>
      </trkpt>
      <trkpt lat="43.94784" lon="4.98707">
        <ele>128</ele>
        <time>2015-03-06T09:42:07Z</time>
      </trkpt>
      <trkpt lat="43.94778" lon="4.98699">
        <ele>137</ele>
        <time>2015-03-06T09:42:13Z</time>
      </trkpt>
      <trkpt lat="43.94777" lon="4.98699">
        <ele>137</ele>
        <time>2015-03-06T09:42:14Z</time>
      </trkpt>
      <trkpt lat="43.94778" lon="4.98688">
        <ele>133</ele>
        <time>2015-03-06T09:42:22Z</time>
      </trkpt>
      <trkpt lat="43.94778" lon="4.98686">
        <ele>133</ele>
        <time>2015-03-06T09:42:23Z</time>
      </trkpt>
      <trkpt lat="43.94781" lon="4.98676">
        <ele>132</ele>
        <time>2015-03-06T09:43:00Z</time>
      </trkpt>
      <trkpt lat="43.94782" lon="4.98674">
        <ele>132</ele>
        <time>2015-03-06T09:43:01Z</time>
      </trkpt>
      <trkpt lat="43.94787" lon="4.98664">
        <ele>134</ele>
        <time>2015-03-06T09:43:08Z</time>
      </trkpt>
      <trkpt lat="43.94788" lon="4.98663">
        <ele>134</ele>
        <time>2015-03-06T09:43:09Z</time>
      </trkpt>
      <trkpt lat="43.94785" lon="4.98651">
        <ele>134</ele>
        <time>2015-03-06T09:43:35Z</time>
      </trkpt>
      <trkpt lat="43.94784" lon="4.9865">
        <ele>134</ele>
        <time>2015-03-06T09:43:36Z</time>
      </trkpt>
      <trkpt lat="43.94777" lon="4.98654">
        <ele>135</ele>
        <time>2015-03-06T09:43:43Z</time>
      </trkpt>
      <trkpt lat="43.94775" lon="4.98654">
        <ele>136</ele>
        <time>2015-03-06T09:43:44Z</time>
      </trkpt>
      <trkpt lat="43.94768" lon="4.98649">
        <ele>135</ele>
        <time>2015-03-06T09:43:51Z</time>
      </trkpt>
      <trkpt lat="43.94767" lon="4.98647">
        <ele>135</ele>
        <time>2015-03-06T09:43:52Z</time>
      </trkpt>
      <trkpt lat="43.94759" lon="4.9865">
        <ele>136</ele>
        <time>2015-03-06T09:44:03Z</time>
      </trkpt>
      <trkpt lat="43.94758" lon="4.98652">
        <ele>136</ele>
        <time>2015-03-06T09:44:04Z</time>
      </trkpt>
      <trkpt lat="43.9475" lon="4.9865">
        <ele>139</ele>
        <time>2015-03-06T09:44:15Z</time>
      </trkpt>
      <trkpt lat="43.94749" lon="4.9865">
        <ele>139</ele>
        <time>2015-03-06T09:44:16Z</time>
      </trkpt>
      <trkpt lat="43.9474" lon="4.98649">
        <ele>140</ele>
        <time>2015-03-06T09:44:25Z</time>
      </trkpt>
      <trkpt lat="43.9474" lon="4.98649">
        <ele>140</ele>
        <time>2015-03-06T09:44:26Z</time>
      </trkpt>
      <trkpt lat="43.94731" lon="4.98652">
        <ele>141</ele>
        <time>2015-03-06T09:44:44Z</time>
      </trkpt>
      <trkpt lat="43.94731" lon="4.98652">
        <ele>141</ele>
        <time>2015-03-06T09:44:45Z</time>
      </trkpt>
      <trkpt lat="43.94723" lon="4.98658">
        <ele>140</ele>
        <time>2015-03-06T09:44:55Z</time>
      </trkpt>
      <trkpt lat="43.94723" lon="4.98659">
        <ele>140</ele>
        <time>2015-03-06T09:44:56Z</time>
      </trkpt>
      <trkpt lat="43.94715" lon="4.98662">
        <ele>141</ele>
        <time>2015-03-06T09:45:05Z</time>
      </trkpt>
      <trkpt lat="43.94714" lon="4.98662">
        <ele>142</ele>
        <time>2015-03-06T09:45:06Z</time>
      </trkpt>
      <trkpt lat="43.94706" lon="4.98667">
        <ele>145</ele>
        <time>2015-03-06T09:46:08Z</time>
      </trkpt>
      <trkpt lat="43.94705" lon="4.98667">
        <ele>145</ele>
        <time>2015-03-06T09:46:09Z</time>
      </trkpt>
      <trkpt lat="43.94697" lon="4.98669">
        <ele>145</ele>
        <time>2015-03-06T09:46:18Z</time>
      </trkpt>
      <trkpt lat="43.94696" lon="4.9867">
        <ele>146</ele>
        <time>2015-03-06T09:46:19Z</time>
      </trkpt>
      <trkpt lat="43.94688" lon="4.98675">
        <ele>147</ele>
        <time>2015-03-06T09:46:26Z</time>
      </trkpt>
      <trkpt lat="43.94687" lon="4.98675">
        <ele>147</ele>
        <time>2015-03-06T09:46:27Z</time>
      </trkpt>
      <trkpt lat="43.9468" lon="4.98681">
        <ele>148</ele>
        <time>2015-03-06T09:46:34Z</time>
      </trkpt>
      <trkpt lat="43.94679" lon="4.98681">
        <ele>148</ele>
        <time>2015-03-06T09:46:35Z</time>
      </trkpt>
      <trkpt lat="43.94671" lon="4.98685">
        <ele>147</ele>
        <time>2015-03-06T09:46:45Z</time>
      </trkpt>
      <trkpt lat="43.94668" lon="4.98686">
        <ele>147</ele>
        <time>2015-03-06T09:46:46Z</time>
      </trkpt>
      <trkpt lat="43.9466" lon="4.98683">
        <ele>148</ele>
        <time>2015-03-06T09:46:50Z</time>
      </trkpt>
      <trkpt lat="43.94658" lon="4.98682">
        <ele>148</ele>
        <time>2015-03-06T09:46:51Z</time>
      </trkpt>
      <trkpt lat="43.94651" lon="4.98679">
        <ele>150</ele>
        <time>2015-03-06T09:46:55Z</time>
      </trkpt>
      <trkpt lat="43.94649" lon="4.98679">
        <ele>150</ele>
        <time>2015-03-06T09:46:56Z</time>
      </trkpt>
      <trkpt lat="43.94642" lon="4.98672">
        <ele>150</ele>
        <time>2015-03-06T09:47:00Z</time>
      </trkpt>
      <trkpt lat="43.9464" lon="4.9867">
        <ele>150</ele>
        <time>2015-03-06T09:47:01Z</time>
      </trkpt>
      <trkpt lat="43.94633" lon="4.98665">
        <ele>149</ele>
        <time>2015-03-06T09:47:04Z</time>
      </trkpt>
      <trkpt lat="43.94631" lon="4.98664">
        <ele>149</ele>
        <time>2015-03-06T09:47:05Z</time>
      </trkpt>
      <trkpt lat="43.94625" lon="4.98659">
        <ele>149</ele>
        <time>2015-03-06T09:47:08Z</time>
      </trkpt>
      <trkpt lat="43.94624" lon="4.98655">
        <ele>149</ele>
        <time>2015-03-06T09:47:09Z</time>
      </trkpt>
      <trkpt lat="43.94616" lon="4.9865">
        <ele>151</ele>
        <time>2015-03-06T09:47:15Z</time>
      </trkpt>
      <trkpt lat="43.94615" lon="4.9865">
        <ele>153</ele>
        <time>2015-03-06T09:47:16Z</time>
      </trkpt>
      <trkpt lat="43.94608" lon="4.98647">
        <ele>153</ele>
        <time>2015-03-06T09:47:25Z</time>
      </trkpt>
      <trkpt lat="43.94606" lon="4.98647">
        <ele>154</ele>
        <time>2015-03-06T09:47:26Z</time>
      </trkpt>
      <trkpt lat="43.94599" lon="4.98653">
        <ele>155</ele>
        <time>2015-03-06T09:47:37Z</time>
      </trkpt>
      <trkpt lat="43.94598" lon="4.98653">
        <ele>155</ele>
        <time>2015-03-06T09:47:38Z</time>
      </trkpt>
      <trkpt lat="43.94589" lon="4.98653">
        <ele>155</ele>
        <time>2015-03-06T09:47:45Z</time>
      </trkpt>
      <trkpt lat="43.94588" lon="4.98654">
        <ele>155</ele>
        <time>2015-03-06T09:47:46Z</time>
      </trkpt>
      <trkpt lat="43.94579" lon="4.98657">
        <ele>156</ele>
        <time>2015-03-06T09:47:59Z</time>
      </trkpt>
      <trkpt lat="43.94578" lon="4.98657">
        <ele>155</ele>
        <time>2015-03-06T09:48:00Z</time>
      </trkpt>
      <trkpt lat="43.9457" lon="4.98653">
        <ele>155</ele>
        <time>2015-03-06T09:48:08Z</time>
      </trkpt>
      <trkpt lat="43.94569" lon="4.98652">
        <ele>156</ele>
        <time>2015-03-06T09:48:09Z</time>
      </trkpt>
      <trkpt lat="43.94561" lon="4.98652">
        <ele>156</ele>
        <time>2015-03-06T09:48:16Z</time>
      </trkpt>
      <trkpt lat="43.9456" lon="4.98652">
        <ele>156</ele>
        <time>2015-03-06T09:48:17Z</time>
      </trkpt>
      <trkpt lat="43.94552" lon="4.98659">
        <ele>159</ele>
        <time>2015-03-06T09:48:28Z</time>
      </trkpt>
      <trkpt lat="43.94552" lon="4.9866">
        <ele>159</ele>
        <time>2015-03-06T09:48:29Z</time>
      </trkpt>
      <trkpt lat="43.94545" lon="4.98666">
        <ele>159</ele>
        <time>2015-03-06T09:49:34Z</time>
      </trkpt>
      <trkpt lat="43.94544" lon="4.98666">
        <ele>159</ele>
        <time>2015-03-06T09:49:35Z</time>
      </trkpt>
      <trkpt lat="43.94538" lon="4.98658">
        <ele>161</ele>
        <time>2015-03-06T09:49:42Z</time>
      </trkpt>
      <trkpt lat="43.94537" lon="4.98657">
        <ele>160</ele>
        <time>2015-03-06T09:49:43Z</time>
      </trkpt>
      <trkpt lat="43.94531" lon="4.98649">
        <ele>162</ele>
        <time>2015-03-06T09:49:58Z</time>
      </trkpt>
      <trkpt lat="43.9453" lon="4.98649">
        <ele>162</ele>
        <time>2015-03-06T09:49:59Z</time>
      </trkpt>
      <trkpt lat="43.94524" lon="4.98639">
        <ele>163</ele>
        <time>2015-03-06T09:50:08Z</time>
      </trkpt>
      <trkpt lat="43.94524" lon="4.98638">
        <ele>163</ele>
        <time>2015-03-06T09:50:09Z</time>
      </trkpt>
      <trkpt lat="43.94525" lon="4.98626">
        <ele>161</ele>
        <time>2015-03-06T09:53:52Z</time>
      </trkpt>
      <trkpt lat="43.94526" lon="4.98625">
        <ele>161</ele>
        <time>2015-03-06T09:53:53Z</time>
      </trkpt>
      <trkpt lat="43.9453" lon="4.98616">
        <ele>158</ele>
        <time>2015-03-06T09:55:06Z</time>
      </trkpt>
      <trkpt lat="43.9453" lon="4.98614">
        <ele>158</ele>
        <time>2015-03-06T09:55:07Z</time>
      </trkpt>
      <trkpt lat="43.94533" lon="4.98602">
        <ele>161</ele>
        <time>2015-03-06T09:55:13Z</time>
      </trkpt>
      <trkpt lat="43.94534" lon="4.986">
        <ele>161</ele>
        <time>2015-03-06T09:55:14Z</time>
      </trkpt>
      <trkpt lat="43.9454" lon="4.98591">
        <ele>162</ele>
        <time>2015-03-06T09:55:20Z</time>
      </trkpt>
      <trkpt lat="43.94541" lon="4.98589">
        <ele>163</ele>
        <time>2015-03-06T09:55:21Z</time>
      </trkpt>
      <trkpt lat="43.94545" lon="4.98579">
        <ele>165</ele>
        <time>2015-03-06T09:55:28Z</time>
      </trkpt>
      <trkpt lat="43.94545" lon="4.98577">
        <ele>164</ele>
        <time>2015-03-06T09:55:29Z</time>
      </trkpt>
      <trkpt lat="43.94545" lon="4.98565">
        <ele>167</ele>
        <time>2015-03-06T09:55:37Z</time>
      </trkpt>
      <trkpt lat="43.94545" lon="4.98564">
        <ele>167</ele>
        <time>2015-03-06T09:55:38Z</time>
      </trkpt>
      <trkpt lat="43.94542" lon="4.98553">
        <ele>170</ele>
        <time>2015-03-06T09:55:48Z</time>
      </trkpt>
      <trkpt lat="43.94541" lon="4.98551">
        <ele>170</ele>
        <time>2015-03-06T09:55:49Z</time>
      </trkpt>
      <trkpt lat="43.94535" lon="4.98543">
        <ele>165</ele>
        <time>2015-03-06T09:56:09Z</time>
      </trkpt>
      <trkpt lat="43.94534" lon="4.98543">
        <ele>164</ele>
        <time>2015-03-06T09:56:10Z</time>
      </trkpt>
      <trkpt lat="43.94526" lon="4.98537">
        <ele>158</ele>
        <time>2015-03-06T09:56:33Z</time>
      </trkpt>
      <trkpt lat="43.94526" lon="4.98537">
        <ele>158</ele>
        <time>2015-03-06T09:56:34Z</time>
      </trkpt>
      <trkpt lat="43.94525" lon="4.98525">
        <ele>153</ele>
        <time>2015-03-06T09:56:52Z</time>
      </trkpt>
      <trkpt lat="43.94525" lon="4.98524">
        <ele>153</ele>
        <time>2015-03-06T09:56:53Z</time>
      </trkpt>
      <trkpt lat="43.94519" lon="4.98514">
        <ele>149</ele>
        <time>2015-03-06T09:57:21Z</time>
      </trkpt>
      <trkpt lat="43.94519" lon="4.98513">
        <ele>149</ele>
        <time>2015-03-06T09:57:22Z</time>
      </trkpt>
      <trkpt lat="43.94515" lon="4.98503">
        <ele>143</ele>
        <time>2015-03-06T09:57:36Z</time>
      </trkpt>
      <trkpt lat="43.94514" lon="4.98503">
        <ele>143</ele>
        <time>2015-03-06T09:57:37Z</time>
      </trkpt>
      <trkpt lat="43.9451" lon="4.98492">
        <ele>145</ele>
        <time>2015-03-06T09:59:08Z</time>
      </trkpt>
      <trkpt lat="43.9451" lon="4.98491">
        <ele>146</ele>
        <time>2015-03-06T09:59:09Z</time>
      </trkpt>
      <trkpt lat="43.94512" lon="4.9848">
        <ele>145</ele>
        <time>2015-03-06T09:59:17Z</time>
      </trkpt>
      <trkpt lat="43.94512" lon="4.98478">
        <ele>144</ele>
        <time>2015-03-06T09:59:18Z</time>
      </trkpt>
      <trkpt lat="43.94519" lon="4.98471">
        <ele>143</ele>
        <time>2015-03-06T09:59:25Z</time>
      </trkpt>
      <trkpt lat="43.94519" lon="4.9847">
        <ele>143</ele>
        <time>2015-03-06T09:59:26Z</time>
      </trkpt>
      <trkpt lat="43.94525" lon="4.98461">
        <ele>140</ele>
        <time>2015-03-06T09:59:35Z</time>
      </trkpt>
      <trkpt lat="43.94525" lon="4.9846">
        <ele>140</ele>
        <time>2015-03-06T09:59:36Z</time>
      </trkpt>
      <trkpt lat="43.94527" lon="4.98447">
        <ele>135</ele>
        <time>2015-03-06T09:59:53Z</time>
      </trkpt>
      <trkpt lat="43.94527" lon="4.98446">
        <ele>136</ele>
        <time>2015-03-06T09:59:54Z</time>
      </trkpt>
      <trkpt lat="43.94532" lon="4.9844">
        <ele>132</ele>
        <time>2015-03-06T10:01:32Z</time>
      </trkpt>
      <trkpt lat="43.94534" lon="4.98439">
        <ele>133</ele>
        <time>2015-03-06T10:01:33Z</time>
      </trkpt>
      <trkpt lat="43.94543" lon="4.98438">
        <ele>136</ele>
        <time>2015-03-06T10:01:37Z</time>
      </trkpt>
      <trkpt lat="43.94545" lon="4.98438">
        <ele>136</ele>
        <time>2015-03-06T10:01:38Z</time>
      </trkpt>
      <trkpt lat="43.94553" lon="4.98438">
        <ele>136</ele>
        <time>2015-03-06T10:01:42Z</time>
      </trkpt>
      <trkpt lat="43.94555" lon="4.98438">
        <ele>136</ele>
        <time>2015-03-06T10:01:43Z</time>
      </trkpt>
      <trkpt lat="43.94562" lon="4.98437">
        <ele>135</ele>
        <time>2015-03-06T10:01:45Z</time>
      </trkpt>
      <trkpt lat="43.94565" lon="4.98436">
        <ele>135</ele>
        <time>2015-03-06T10:01:46Z</time>
      </trkpt>
      <trkpt lat="43.94571" lon="4.98437">
        <ele>135</ele>
        <time>2015-03-06T10:01:48Z</time>
      </trkpt>
      <trkpt lat="43.94574" lon="4.98437">
        <ele>135</ele>
        <time>2015-03-06T10:01:49Z</time>
      </trkpt>
      <trkpt lat="43.94582" lon="4.98435">
        <ele>136</ele>
        <time>2015-03-06T10:01:52Z</time>
      </trkpt>
      <trkpt lat="43.94584" lon="4.98434">
        <ele>136</ele>
        <time>2015-03-06T10:01:53Z</time>
      </trkpt>
      <trkpt lat="43.94592" lon="4.98429">
        <ele>138</ele>
        <time>2015-03-06T10:01:57Z</time>
      </trkpt>
      <trkpt lat="43.94594" lon="4.98428">
        <ele>138</ele>
        <time>2015-03-06T10:01:58Z</time>
      </trkpt>
      <trkpt lat="43.946" lon="4.98423">
        <ele>139</ele>
        <time>2015-03-06T10:02:01Z</time>
      </trkpt>
      <trkpt lat="43.94602" lon="4.9842">
        <ele>138</ele>
        <time>2015-03-06T10:02:02Z</time>
      </trkpt>
      <trkpt lat="43.94608" lon="4.98415">
        <ele>138</ele>
        <time>2015-03-06T10:02:04Z</time>
      </trkpt>
      <trkpt lat="43.94611" lon="4.98415">
        <ele>137</ele>
        <time>2015-03-06T10:02:05Z</time>
      </trkpt>
      <trkpt lat="43.9462" lon="4.98415">
        <ele>137</ele>
        <time>2015-03-06T10:02:08Z</time>
      </trkpt>
      <trkpt lat="43.94623" lon="4.98415">
        <ele>137</ele>
        <time>2015-03-06T10:02:09Z</time>
      </trkpt>
      <trkpt lat="43.9463" lon="4.98416">
        <ele>136</ele>
        <time>2015-03-06T10:02:15Z</time>
      </trkpt>
      <trkpt lat="43.94631" lon="4.98417">
        <ele>135</ele>
        <time>2015-03-06T10:02:16Z</time>
      </trkpt>
      <trkpt lat="43.94638" lon="4.98419">
        <ele>135</ele>
        <time>2015-03-06T10:02:19Z</time>
      </trkpt>
      <trkpt lat="43.94641" lon="4.98419">
        <ele>134</ele>
        <time>2015-03-06T10:02:20Z</time>
      </trkpt>
      <trkpt lat="43.94648" lon="4.9842">
        <ele>134</ele>
        <time>2015-03-06T10:02:23Z</time>
      </trkpt>
      <trkpt lat="43.9465" lon="4.98421">
        <ele>133</ele>
        <time>2015-03-06T10:02:24Z</time>
      </trkpt>
      <trkpt lat="43.94657" lon="4.98425">
        <ele>131</ele>
        <time>2015-03-06T10:02:27Z</time>
      </trkpt>
      <trkpt lat="43.94659" lon="4.98426">
        <ele>131</ele>
        <time>2015-03-06T10:02:28Z</time>
      </trkpt>
      <trkpt lat="43.94666" lon="4.9843">
        <ele>128</ele>
        <time>2015-03-06T10:02:31Z</time>
      </trkpt>
      <trkpt lat="43.94669" lon="4.9843">
        <ele>128</ele>
        <time>2015-03-06T10:02:32Z</time>
      </trkpt>
      <trkpt lat="43.94676" lon="4.98429">
        <ele>129</ele>
        <time>2015-03-06T10:02:35Z</time>
      </trkpt>
      <trkpt lat="43.94678" lon="4.9843">
        <ele>129</ele>
        <time>2015-03-06T10:02:36Z</time>
      </trkpt>
      <trkpt lat="43.94685" lon="4.98431">
        <ele>129</ele>
        <time>2015-03-06T10:02:39Z</time>
      </trkpt>
      <trkpt lat="43.94688" lon="4.98432">
        <ele>128</ele>
        <time>2015-03-06T10:02:40Z</time>
      </trkpt>
      <trkpt lat="43.94695" lon="4.98433">
        <ele>128</ele>
        <time>2015-03-06T10:02:43Z</time>
      </trkpt>
      <trkpt lat="43.94698" lon="4.98435">
        <ele>127</ele>
        <time>2015-03-06T10:02:44Z</time>
      </trkpt>
      <trkpt lat="43.94706" lon="4.98438">
        <ele>124</ele>
        <time>2015-03-06T10:03:24Z</time>
      </trkpt>
      <trkpt lat="43.94709" lon="4.98439">
        <ele>124</ele>
        <time>2015-03-06T10:03:25Z</time>
      </trkpt>
      <trkpt lat="43.94716" lon="4.98444">
        <ele>124</ele>
        <time>2015-03-06T10:03:28Z</time>
      </trkpt>
      <trkpt lat="43.94718" lon="4.98445">
        <ele>123</ele>
        <time>2015-03-06T10:03:29Z</time>
      </trkpt>
      <trkpt lat="43.94725" lon="4.98448">
        <ele>124</ele>
        <time>2015-03-06T10:03:32Z</time>
      </trkpt>
      <trkpt lat="43.94727" lon="4.98449">
        <ele>124</ele>
        <time>2015-03-06T10:03:33Z</time>
      </trkpt>
      <trkpt lat="43.94733" lon="4.98454">
        <ele>124</ele>
        <time>2015-03-06T10:03:36Z</time>
      </trkpt>
      <trkpt lat="43.94735" lon="4.98457">
        <ele>124</ele>
        <time>2015-03-06T10:03:37Z</time>
      </trkpt>
      <trkpt lat="43.9474" lon="4.98464">
        <ele>124</ele>
        <time>2015-03-06T10:03:40Z</time>
      </trkpt>
      <trkpt lat="43.94742" lon="4.98468">
        <ele>124</ele>
        <time>2015-03-06T10:03:41Z</time>
      </trkpt>
      <trkpt lat="43.94744" lon="4.98475">
        <ele>123</ele>
        <time>2015-03-06T10:06:26Z</time>
      </trkpt>
      <trkpt lat="43.94745" lon="4.98481">
        <ele>123</ele>
        <time>2015-03-06T10:06:27Z</time>
      </trkpt>
      <trkpt lat="43.94746" lon="4.98493">
        <ele>123</ele>
        <time>2015-03-06T10:06:30Z</time>
      </trkpt>
      <trkpt lat="43.94747" lon="4.98497">
        <ele>123</ele>
        <time>2015-03-06T10:06:31Z</time>
      </trkpt>
      <trkpt lat="43.9475" lon="4.98509">
        <ele>123</ele>
        <time>2015-03-06T10:06:34Z</time>
      </trkpt>
      <trkpt lat="43.94751" lon="4.98512">
        <ele>124</ele>
        <time>2015-03-06T10:06:35Z</time>
      </trkpt>
      <trkpt lat="43.94754" lon="4.98524">
        <ele>124</ele>
        <time>2015-03-06T10:06:38Z</time>
      </trkpt>
      <trkpt lat="43.94756" lon="4.98527">
        <ele>125</ele>
        <time>2015-03-06T10:06:39Z</time>
      </trkpt>
      <trkpt lat="43.94759" lon="4.98538">
        <ele>125</ele>
        <time>2015-03-06T10:06:42Z</time>
      </trkpt>
      <trkpt lat="43.94759" lon="4.98542">
        <ele>125</ele>
        <time>2015-03-06T10:06:43Z</time>
      </trkpt>
      <trkpt lat="43.94761" lon="4.98552">
        <ele>126</ele>
        <time>2015-03-06T10:06:46Z</time>
      </trkpt>
      <trkpt lat="43.9476" lon="4.98555">
        <ele>126</ele>
        <time>2015-03-06T10:06:47Z</time>
      </trkpt>
      <trkpt lat="43.94752" lon="4.98559">
        <ele>127</ele>
        <time>2015-03-06T10:06:51Z</time>
      </trkpt>
      <trkpt lat="43.9475" lon="4.98558">
        <ele>127</ele>
        <time>2015-03-06T10:06:52Z</time>
      </trkpt>
      <trkpt lat="43.94743" lon="4.9856">
        <ele>127</ele>
        <time>2015-03-06T10:06:55Z</time>
      </trkpt>
      <trkpt lat="43.94741" lon="4.98562">
        <ele>127</ele>
        <time>2015-03-06T10:06:56Z</time>
      </trkpt>
      <trkpt lat="43.94733" lon="4.98565">
        <ele>129</ele>
        <time>2015-03-06T10:07:00Z</time>
      </trkpt>
      <trkpt lat="43.94731" lon="4.98564">
        <ele>129</ele>
        <time>2015-03-06T10:07:01Z</time>
      </trkpt>
      <trkpt lat="43.94722" lon="4.98565">
        <ele>129</ele>
        <time>2015-03-06T10:07:05Z</time>
      </trkpt>
      <trkpt lat="43.9472" lon="4.98566">
        <ele>129</ele>
        <time>2015-03-06T10:07:06Z</time>
      </trkpt>
      <trkpt lat="43.94712" lon="4.9857">
        <ele>130</ele>
        <time>2015-03-06T10:07:11Z</time>
      </trkpt>
      <trkpt lat="43.9471" lon="4.98571">
        <ele>130</ele>
        <time>2015-03-06T10:07:12Z</time>
      </trkpt>
      <trkpt lat="43.94703" lon="4.98575">
        <ele>131</ele>
        <time>2015-03-06T10:07:18Z</time>
      </trkpt>
      <trkpt lat="43.94702" lon="4.98576">
        <ele>131</ele>
        <time>2015-03-06T10:07:19Z</time>
      </trkpt>
      <trkpt lat="43.94693" lon="4.9858">
        <ele>131</ele>
        <time>2015-03-06T10:07:31Z</time>
      </trkpt>
      <trkpt lat="43.94692" lon="4.9858">
        <ele>131</ele>
        <time>2015-03-06T10:07:32Z</time>
      </trkpt>
      <trkpt lat="43.94685" lon="4.98583">
        <ele>128</ele>
        <time>2015-03-06T10:07:41Z</time>
      </trkpt>
      <trkpt lat="43.94684" lon="4.98584">
        <ele>128</ele>
        <time>2015-03-06T10:07:42Z</time>
      </trkpt>
      <trkpt lat="43.94675" lon="4.98586">
        <ele>130</ele>
        <time>2015-03-06T10:07:50Z</time>
      </trkpt>
      <trkpt lat="43.94674" lon="4.98586">
        <ele>131</ele>
        <time>2015-03-06T10:07:51Z</time>
      </trkpt>
      <trkpt lat="43.94665" lon="4.98588">
        <ele>133</ele>
        <time>2015-03-06T10:08:00Z</time>
      </trkpt>
      <trkpt lat="43.94664" lon="4.98588">
        <ele>134</ele>
        <time>2015-03-06T10:08:01Z</time>
      </trkpt>
      <trkpt lat="43.94656" lon="4.98591">
        <ele>133</ele>
        <time>2015-03-06T10:08:08Z</time>
      </trkpt>
      <trkpt lat="43.94655" lon="4.98591">
        <ele>133</ele>
        <time>2015-03-06T10:08:09Z</time>
      </trkpt>
      <trkpt lat="43.94646" lon="4.98592">
        <ele>134</ele>
        <time>2015-03-06T10:08:17Z</time>
      </trkpt>
      <trkpt lat="43.94645" lon="4.98592">
        <ele>134</ele>
        <time>2015-03-06T10:08:18Z</time>
      </trkpt>
      <trkpt lat="43.94637" lon="4.98595">
        <ele>135</ele>
        <time>2015-03-06T10:08:25Z</time>
      </trkpt>
      <trkpt lat="43.94636" lon="4.98595">
        <ele>135</ele>
        <time>2015-03-06T10:08:26Z</time>
      </trkpt>
      <trkpt lat="43.94628" lon="4.98598">
        <ele>136</ele>
        <time>2015-03-06T10:08:33Z</time>
      </trkpt>
      <trkpt lat="43.94626" lon="4.98598">
        <ele>137</ele>
        <time>2015-03-06T10:08:34Z</time>
      </trkpt>
      <trkpt lat="43.94619" lon="4.98601">
        <ele>139</ele>
        <time>2015-03-06T10:08:41Z</time>
      </trkpt>
      <trkpt lat="43.94617" lon="4.98601">
        <ele>139</ele>
        <time>2015-03-06T10:08:42Z</time>
      </trkpt>
      <trkpt lat="43.94609" lon="4.98599">
        <ele>140</ele>
        <time>2015-03-06T10:08:50Z</time>
      </trkpt>
      <trkpt lat="43.94608" lon="4.986">
        <ele>140</ele>
        <time>2015-03-06T10:08:51Z</time>
      </trkpt>
      <trkpt lat="43.946" lon="4.98604">
        <ele>143</ele>
        <time>2015-03-06T10:09:04Z</time>
      </trkpt>
      <trkpt lat="43.94599" lon="4.98604">
        <ele>143</ele>
        <time>2015-03-06T10:09:05Z</time>
      </trkpt>
      <trkpt lat="43.94591" lon="4.98608">
        <ele>145</ele>
        <time>2015-03-06T10:09:11Z</time>
      </trkpt>
      <trkpt lat="43.9459" lon="4.98608">
        <ele>145</ele>
        <time>2015-03-06T10:09:12Z</time>
      </trkpt>
      <trkpt lat="43.94581" lon="4.9861">
        <ele>146</ele>
        <time>2015-03-06T10:09:18Z</time>
      </trkpt>
      <trkpt lat="43.9458" lon="4.9861">
        <ele>146</ele>
        <time>2015-03-06T10:09:19Z</time>
      </trkpt>
      <trkpt lat="43.94572" lon="4.98611">
        <ele>148</ele>
        <time>2015-03-06T10:09:25Z</time>
      </trkpt>
      <trkpt lat="43.9457" lon="4.98611">
        <ele>149</ele>
        <time>2015-03-06T10:09:26Z</time>
      </trkpt>
      <trkpt lat="43.94562" lon="4.98613">
        <ele>152</ele>
        <time>2015-03-06T10:09:34Z</time>
      </trkpt>
      <trkpt lat="43.94561" lon="4.98614">
        <ele>153</ele>
        <time>2015-03-06T10:09:35Z</time>
      </trkpt>
      <trkpt lat="43.94554" lon="4.9862">
        <ele>154</ele>
        <time>2015-03-06T10:09:45Z</time>
      </trkpt>
      <trkpt lat="43.94554" lon="4.98622">
        <ele>154</ele>
        <time>2015-03-06T10:09:46Z</time>
      </trkpt>
      <trkpt lat="43.94545" lon="4.98622">
        <ele>157</ele>
        <time>2015-03-06T10:09:55Z</time>
      </trkpt>
      <trkpt lat="43.94544" lon="4.98621">
        <ele>157</ele>
        <time>2015-03-06T10:09:56Z</time>
      </trkpt>
      <trkpt lat="43.94536" lon="4.98621">
        <ele>157</ele>
        <time>2015-03-06T10:10:05Z</time>
      </trkpt>
      <trkpt lat="43.94535" lon="4.98621">
        <ele>156</ele>
        <time>2015-03-06T10:10:06Z</time>
      </trkpt>
      <trkpt lat="43.94528" lon="4.98622">
        <ele>156</ele>
        <time>2015-03-06T10:10:12Z</time>
      </trkpt>
      <trkpt lat="43.94526" lon="4.98622">
        <ele>156</ele>
        <time>2015-03-06T10:10:13Z</time>
      </trkpt>
      <trkpt lat="43.94517" lon="4.98624">
        <ele>159</ele>
        <time>2015-03-06T10:10:28Z</time>
      </trkpt>
      <trkpt lat="43.94517" lon="4.98625">
        <ele>159</ele>
        <time>2015-03-06T10:10:29Z</time>
      </trkpt>
      <trkpt lat="43.9451" lon="4.9863">
        <ele>160</ele>
        <time>2015-03-06T10:10:33Z</time>
      </trkpt>
      <trkpt lat="43.94508" lon="4.98632">
        <ele>160</ele>
        <time>2015-03-06T10:10:34Z</time>
      </trkpt>
      <trkpt lat="43.945" lon="4.98636">
        <ele>156</ele>
        <time>2015-03-06T10:10:37Z</time>
      </trkpt>
      <trkpt lat="43.94499" lon="4.98637">
        <ele>155</ele>
        <time>2015-03-06T10:10:38Z</time>
      </trkpt>
      <trkpt lat="43.94493" lon="4.98641">
        <ele>153</ele>
        <time>2015-03-06T10:10:49Z</time>
      </trkpt>
      <trkpt lat="43.9449" lon="4.9864">
        <ele>153</ele>
        <time>2015-03-06T10:10:50Z</time>
      </trkpt>
      <trkpt lat="43.94484" lon="4.98643">
        <ele>152</ele>
        <time>2015-03-06T10:10:52Z</time>
      </trkpt>
      <trkpt lat="43.94481" lon="4.98645">
        <ele>152</ele>
        <time>2015-03-06T10:10:53Z</time>
      </trkpt>
      <trkpt lat="43.94473" lon="4.98644">
        <ele>152</ele>
        <time>2015-03-06T10:10:55Z</time>
      </trkpt>
      <trkpt lat="43.9447" lon="4.98645">
        <ele>152</ele>
        <time>2015-03-06T10:10:56Z</time>
      </trkpt>
      <trkpt lat="43.94462" lon="4.98648">
        <ele>146</ele>
        <time>2015-03-06T10:10:59Z</time>
      </trkpt>
      <trkpt lat="43.9446" lon="4.9865">
        <ele>151</ele>
        <time>2015-03-06T10:11:00Z</time>
      </trkpt>
      <trkpt lat="43.94455" lon="4.98656">
        <ele>150</ele>
        <time>2015-03-06T10:11:03Z</time>
      </trkpt>
      <trkpt lat="43.94453" lon="4.98658">
        <ele>149</ele>
        <time>2015-03-06T10:11:04Z</time>
      </trkpt>
      <trkpt lat="43.94446" lon="4.98663">
        <ele>148</ele>
        <time>2015-03-06T10:11:09Z</time>
      </trkpt>
      <trkpt lat="43.94445" lon="4.98664">
        <ele>147</ele>
        <time>2015-03-06T10:11:10Z</time>
      </trkpt>
      <trkpt lat="43.94438" lon="4.98668">
        <ele>147</ele>
        <time>2015-03-06T10:11:51Z</time>
      </trkpt>
      <trkpt lat="43.94436" lon="4.98669">
        <ele>146</ele>
        <time>2015-03-06T10:11:52Z</time>
      </trkpt>
      <trkpt lat="43.94427" lon="4.98668">
        <ele>145</ele>
        <time>2015-03-06T10:12:21Z</time>
      </trkpt>
      <trkpt lat="43.94427" lon="4.98668">
        <ele>145</ele>
        <time>2015-03-06T10:12:22Z</time>
      </trkpt>
      <trkpt lat="43.94419" lon="4.98668">
        <ele>144</ele>
        <time>2015-03-06T10:12:27Z</time>
      </trkpt>
      <trkpt lat="43.94417" lon="4.98668">
        <ele>144</ele>
        <time>2015-03-06T10:12:28Z</time>
      </trkpt>
      <trkpt lat="43.94409" lon="4.98671">
        <ele>143</ele>
        <time>2015-03-06T10:12:32Z</time>
      </trkpt>
      <trkpt lat="43.94407" lon="4.98671">
        <ele>142</ele>
        <time>2015-03-06T10:12:33Z</time>
      </trkpt>
      <trkpt lat="43.94399" lon="4.98674">
        <ele>139</ele>
        <time>2015-03-06T10:13:04Z</time>
      </trkpt>
      <trkpt lat="43.94397" lon="4.98674">
        <ele>139</ele>
        <time>2015-03-06T10:13:05Z</time>
      </trkpt>
      <trkpt lat="43.94388" lon="4.98674">
        <ele>136</ele>
        <time>2015-03-06T10:13:21Z</time>
      </trkpt>
      <trkpt lat="43.94388" lon="4.98672">
        <ele>136</ele>
        <time>2015-03-06T10:13:22Z</time>
      </trkpt>
      <trkpt lat="43.94379" lon="4.98673">
        <ele>137</ele>
        <time>2015-03-06T10:13:31Z</time>
      </trkpt>
      <trkpt lat="43.94377" lon="4.98674">
        <ele>136</ele>
        <time>2015-03-06T10:13:32Z</time>
      </trkpt>
      <trkpt lat="43.9437" lon="4.98677">
        <ele>135</ele>
        <time>2015-03-06T10:13:35Z</time>
      </trkpt>
      <trkpt lat="43.94367" lon="4.98678">
        <ele>135</ele>
        <time>2015-03-06T10:13:36Z</time>
      </trkpt>
      <trkpt lat="43.9436" lon="4.98685">
        <ele>132</ele>
        <time>2015-03-06T10:13:39Z</time>
      </trkpt>
      <trkpt lat="43.94357" lon="4.98687">
        <ele>132</ele>
        <time>2015-03-06T10:13:40Z</time>
      </trkpt>
      <trkpt lat="43.9435" lon="4.9869">
        <ele>132</ele>
        <time>2015-03-06T10:13:42Z</time>
      </trkpt>
      <trkpt lat="43.94347" lon="4.98691">
        <ele>132</ele>
        <time>2015-03-06T10:13:43Z</time>
      </trkpt>
      <trkpt lat="43.94339" lon="4.98689">
        <ele>130</ele>
        <time>2015-03-06T10:13:46Z</time>
      </trkpt>
      <trkpt lat="43.94336" lon="4.98688">
        <ele>130</ele>
        <time>2015-03-06T10:13:47Z</time>
      </trkpt>
      <trkpt lat="43.94328" lon="4.9869">
        <ele>128</ele>
        <time>2015-03-06T10:13:51Z</time>
      </trkpt>
      <trkpt lat="43.94326" lon="4.98689">
        <ele>128</ele>
        <time>2015-03-06T10:13:52Z</time>
      </trkpt>
      <trkpt lat="43.94319" lon="4.98688">
        <ele>126</ele>
        <time>2015-03-06T10:13:54Z</time>
      </trkpt>
      <trkpt lat="43.94315" lon="4.98689">
        <ele>126</ele>
        <time>2015-03-06T10:13:55Z</time>
      </trkpt>
      <trkpt lat="43.94307" lon="4.9869">
        <ele>125</ele>
        <time>2015-03-06T10:13:57Z</time>
      </trkpt>
      <trkpt lat="43.94304" lon="4.98691">
        <ele>125</ele>
        <time>2015-03-06T10:13:58Z</time>
      </trkpt>
      <trkpt lat="43.94296" lon="4.98686">
        <ele>125</ele>
        <time>2015-03-06T10:14:02Z</time>
      </trkpt>
      <trkpt lat="43.94294" lon="4.98685">
        <ele>123</ele>
        <time>2015-03-06T10:14:03Z</time>
      </trkpt>
      <trkpt lat="43.94286" lon="4.9868">
        <ele>120</ele>
        <time>2015-03-06T10:14:06Z</time>
      </trkpt>
      <trkpt lat="43.94283" lon="4.98678">
        <ele>119</ele>
        <time>2015-03-06T10:14:07Z</time>
      </trkpt>
      <trkpt lat="43.94276" lon="4.98676">
        <ele>118</ele>
        <time>2015-03-06T10:14:09Z</time>
      </trkpt>
      <trkpt lat="43.94273" lon="4.98676">
        <ele>117</ele>
        <time>2015-03-06T10:14:10Z</time>
      </trkpt>
      <trkpt lat="43.94265" lon="4.98679">
        <ele>115</ele>
        <time>2015-03-06T10:14:12Z</time>
      </trkpt>
      <trkpt lat="43.94257" lon="4.98679">
        <ele>116</ele>
        <time>2015-03-06T10:14:13Z</time>
      </trkpt>
      <trkpt lat="43.9425" lon="4.98676">
        <ele>115</ele>
        <time>2015-03-06T10:14:15Z</time>
      </trkpt>
      <trkpt lat="43.94247" lon="4.98675">
        <ele>116</ele>
        <time>2015-03-06T10:14:16Z</time>
      </trkpt>
      <trkpt lat="43.94241" lon="4.98672">
        <ele>114</ele>
        <time>2015-03-06T10:14:18Z</time>
      </trkpt>
      <trkpt lat="43.94239" lon="4.98671">
        <ele>114</ele>
        <time>2015-03-06T10:14:19Z</time>
      </trkpt>
      <trkpt lat="43.94235" lon="4.9866">
        <ele>114</ele>
        <time>2015-03-06T10:14:23Z</time>
      </trkpt>
      <trkpt lat="43.94235" lon="4.98656">
        <ele>114</ele>
        <time>2015-03-06T10:14:24Z</time>
      </trkpt>
      <trkpt lat="43.94234" lon="4.98646">
        <ele>115</ele>
        <time>2015-03-06T10:14:27Z</time>
      </trkpt>
      <trkpt lat="43.94232" lon="4.98644">
        <ele>114</ele>
        <time>2015-03-06T10:14:28Z</time>
      </trkpt>
      <trkpt lat="43.94226" lon="4.98635">
        <ele>110</ele>
        <time>2015-03-06T10:28:26Z</time>
      </trkpt>
      <trkpt lat="43.94226" lon="4.98634">
        <ele>110</ele>
        <time>2015-03-06T10:28:27Z</time>
      </trkpt>
      <trkpt lat="43.94225" lon="4.98633">
        <ele>113</ele>
        <time>2015-03-06T10:29:52Z</time>
      </trkpt>
    </trkseg>
  </trk>
</gpx>